Data for 07/24/2007

Time Sea-Level Adjusted Pressure Absolute Pressure Temperature Relative Humidity Dew Point Precipitation   
(mb) (inHg) (mb) (inHg) (C) (F) (%) (C) (F) (mm) (in)
00:01 1018 30.06 848 25.04 23.6 74.5 39 9 48.3 0
00:02 1018 30.06 848 25.04 23.7 74.6 38 8.7 47.7 0
00:03 1018 30.06 848 25.04 23.8 74.8 38 8.9 48 0
00:04 1018 30.06 848 25.04 23.8 74.9 38 8.8 47.9 0
00:05 1018 30.06 848 25.04 23.9 74.9 38 8.8 47.9 0
00:06 1018 30.06 848 25.04 23.9 75 38 8.8 47.9 0
00:07 1018 30.06 848 25.04 23.9 75.1 37 8.7 47.7 0
00:08 1018 30.06 848 25.04 24 75.2 37 8.5 47.2 0
00:09 1018 30.06 848 25.04 24.1 75.3 37 8.6 47.5 0
00:10 1018 30.06 848 25.04 24.1 75.3 36 8.4 47.1 0
00:11 1018 30.06 848 25.04 24.2 75.5 36 8.6 47.4 0
00:12 1018 30.06 848 25.04 24.2 75.6 36 8.3 47 0
00:13 1018 30.06 848 25.04 24.3 75.7 35 8.2 46.7 0
00:14 1018 30.06 848 25.04 24.4 75.8 36 8.5 47.3 0
00:15 1018 30.06 848 25.04 24.4 75.9 36 8.5 47.3 0
00:16 1018 30.06 848 25.04 24.4 75.9 36 8.7 47.6 0
00:17 1018 30.06 847 25.01 24.4 75.8 36 8.6 47.6 0
00:18 1018 30.06 847 25.01 24.4 75.8 37 8.8 47.8 0
00:19 1018 30.06 847 25.01 24.3 75.8 37 8.8 47.9 0
00:20 1018 30.06 847 25.01 24.3 75.8 36 8.5 47.2 0
00:21 1018 30.06 847 25.01 24.3 75.7 36 8.5 47.3 0
00:22 1018 30.06 847 25.01 24.3 75.8 37 8.7 47.7 0
00:23 1018 30.06 847 25.01 24.3 75.7 36 8.5 47.4 0
00:24 1018 30.06 847 25.01 24.2 75.6 37 8.7 47.6 0
00:25 1018 30.06 847 25.01 24.2 75.6 37 8.7 47.7 0
00:26 1018 30.06 847 25.01 24.2 75.5 37 8.7 47.6 0
00:27 1018 30.06 848 25.04 24.2 75.5 36 8.4 47.1 0
00:28 1018 30.06 848 25.04 24.2 75.6 35 8.2 46.7 0
00:29 1018 30.06 848 25.04 24.3 75.8 34 7.7 45.9 0
00:30 1018 30.06 847 25.01 24.5 76 35 8 46.5 0
00:31 1018 30.06 847 25.01 24.5 76 35 8.3 47 0
00:32 1018 30.06 847 25.01 24.4 76 35 8.2 46.8 0
00:33 1018 30.06 847 25.01 24.4 76 36 8.7 47.6 0
00:34 1018 30.06 847 25.01 24.3 75.7 38 9.3 48.8 0
00:35 1018 30.06 847 25.01 24.1 75.3 39 9.6 49.3 0
00:36 1018 30.06 847 25.01 23.8 74.8 42 10.2 50.4 0
00:37 1018 30.06 847 25.01 23.4 74.1 43 10.5 50.9 0
00:38 1018 30.06 847 25.01 23.1 73.5 46 10.9 51.5 0
00:39 1018 30.06 847 25.01 22.7 72.9 47 10.9 51.6 0
00:40 1018 30.06 847 25.01 22.4 72.3 48 10.9 51.7 0
00:41 1018 30.06 847 25.01 22.2 71.9 48 10.7 51.3 0
00:42 1018 30.06 847 25.01 22 71.7 48 10.6 51.1 0
00:43 1018 30.06 847 25.01 21.9 71.5 48 10.6 51 0
00:44 1018 30.06 847 25.01 21.9 71.3 48 10.4 50.7 0
00:45 1018 30.06 847 25.01 21.9 71.3 47 10.2 50.4 0
00:46 1018 30.06 847 25.01 21.9 71.4 48 10.5 50.8 0
00:47 1018 30.06 847 25.01 21.8 71.3 48 10.5 51 0
00:48 1018 30.06 847 25.01 21.8 71.2 48 10.4 50.8 0
00:49 1018 30.06 847 25.01 21.7 71.1 48 10.4 50.6 0
00:50 1018 30.06 847 25.01 21.7 71 48 10.4 50.8 0
00:51 1018 30.06 847 25.01 21.6 70.9 48 10.4 50.7 0
00:52 1018 30.06 847 25.01 21.6 70.8 47 9.9 49.8 0
00:53 1018 30.06 847 25.01 21.7 71 47 10.2 50.3 0
00:54 1018 30.06 847 25.01 21.7 71.1 46 9.9 49.8 0
00:55 1018 30.06 847 25.01 21.8 71.3 46 9.8 49.6 0
00:56 1018 30.06 848 25.04 21.9 71.5 45 9.7 49.4 0
00:57 1018 30.06 847 25.01 22.1 71.7 45 9.7 49.4 0
00:58 1018 30.06 848 25.04 22.1 71.8 45 9.9 49.9 0
00:59 1018 30.06 848 25.04 22.2 71.9 45 9.9 49.8 0
01:00 1018 30.06 848 25.04 22.2 71.9 46 10.2 50.4 0
01:01 1018 30.06 848 25.04 22.2 71.9 46 10.2 50.3 0
01:02 1018 30.06 847 25.01 22.2 71.9 45 9.9 49.8 0
01:03 1018 30.06 848 25.04 22.2 72 44 9.7 49.5 0
01:04 1018 30.06 848 25.04 22.3 72.1 44 9.5 49.1 0
01:05 1018 30.06 848 25.04 22.4 72.3 43 9.4 48.9 0
01:06 1018 30.06 848 25.04 22.5 72.5 43 9.5 49 0
01:07 1018 30.06 848 25.04 22.6 72.6 42 9.3 48.7 0
01:08 1018 30.06 848 25.04 22.6 72.7 43 9.4 49 0
01:09 1018 30.06 848 25.04 22.6 72.8 42 9.2 48.5 0
01:10 1018 30.06 848 25.04 22.7 72.9 42 9.2 48.5 0
01:11 1018 30.06 848 25.04 22.8 73 42 9.3 48.7 0
01:12 1018 30.06 848 25.04 22.8 73 42 9.4 48.9 0
01:13 1018 30.06 848 25.04 22.8 73 42 9.4 48.8 0
01:14 1018 30.06 848 25.04 22.8 73 42 9.3 48.7 0
01:15 1018 30.06 848 25.04 22.8 73 42 9.3 48.7 0
01:16 1018 30.06 848 25.04 22.8 73 42 9.3 48.8 0
01:17 1018 30.06 848 25.04 22.9 73.1 41 9.2 48.6 0
01:18 1018 30.06 848 25.04 22.9 73.1 42 9.3 48.8 0
01:19 1018 30.06 848 25.04 22.9 73.2 41 9.1 48.4 0
01:20 1018 30.06 848 25.04 22.9 73.2 41 9.2 48.6 0
01:21 1018 30.06 848 25.04 22.9 73.3 41 9.3 48.7 0
01:22 1018 30.06 848 25.04 22.9 73.2 41 9 48.2 0
01:23 1018 30.06 848 25.04 23 73.3 40 8.8 47.8 0
01:24 1018 30.06 848 25.04 23.1 73.5 39 8.7 47.7 0
01:25 1018 30.06 848 25.04 23.1 73.6 40 8.8 47.9 0
01:26 1018 30.06 848 25.04 23.2 73.7 41 9.3 48.8 0
01:27 1018 30.06 848 25.04 23 73.3 42 9.7 49.4 0
01:28 1019 30.09 848 25.04 22.7 72.9 44 10 50.1 0
01:29 1019 30.09 848 25.04 22.4 72.3 46 10.5 50.8 0
01:30 1019 30.09 848 25.04 22.2 71.9 47 10.6 51.1 0
01:31 1019 30.09 848 25.04 22 71.6 48 10.6 51.2 0
01:32 1018 30.06 848 25.04 21.9 71.4 46 9.8 49.6 0
01:33 1018 30.06 848 25.04 22 71.5 44 9.4 49 0
01:34 1019 30.09 848 25.04 22.6 72.6 37 7.2 45 0
01:35 1019 30.09 848 25.04 23.7 74.6 32 6.1 42.9 0
01:36 1019 30.09 848 25.04 24.9 76.9 28 5.2 41.4 0
01:37 1019 30.09 848 25.04 26 78.9 25 5 41 0
01:38 1018 30.06 848 25.04 26.8 80.2 25 5.1 41.3 0
01:39 1018 30.06 848 25.04 27.4 81.3 24 5.5 42 0
01:40 1018 30.06 848 25.04 27.7 81.9 24 5.7 42.3 0
01:41 1018 30.06 848 25.04 27.9 82.3 23 5 41.1 0
01:42 1018 30.06 847 25.01 28.2 82.8 23 5.4 41.7 0
01:43 1018 30.06 847 25.01 28.2 82.8 26 7.5 45.4 0
01:44 1018 30.06 847 25.01 27.6 81.8 27 7.1 44.7 0
01:45 1018 30.06 847 25.01 27.4 81.4 26 6.6 43.9 0
01:46 1018 30.06 847 25.01 27.4 81.2 26 6.7 44 0
01:47 1018 30.06 847 25.01 27.2 80.9 29 7.8 46.1 0
01:48 1018 30.06 847 25.01 26.6 79.9 32 8.7 47.6 0
01:49 1018 30.06 847 25.01 25.9 78.6 33 8.7 47.6 0
01:50 1018 30.06 847 25.01 25.3 77.5 34 8.8 47.8 0
01:51 1018 30.06 847 25.01 24.9 76.7 36 9.1 48.4 0
01:52 1018 30.06 847 25.01 24.4 76 38 9.3 48.8 0
01:53 1018 30.06 847 25.01 24 75.3 39 9.6 49.3 0
01:54 1018 30.06 847 25.01 23.7 74.6 41 9.7 49.5 0
01:55 1018 30.06 847 25.01 23.4 74 40 9.3 48.7 0
01:56 1018 30.06 847 25.01 23.2 73.7 40 9.2 48.5 0
01:57 1018 30.06 847 25.01 23.2 73.7 40 9.1 48.4 0
01:58 1018 30.06 847 25.01 23.1 73.6 41 9.2 48.6 0
01:59 1018 30.06 847 25.01 23.1 73.5 41 9.4 49 0
02:00 1018 30.06 847 25.01 23 73.3 43 9.8 49.6 0
02:01 1018 30.06 847 25.01 22.8 73 44 10 50 0
02:02 1018 30.06 847 25.01 22.6 72.6 44 10 50 0
02:03 1018 30.06 847 25.01 22.3 72.2 45 10.1 50.3 0
02:04 1018 30.06 847 25.01 22.1 71.8 47 10.3 50.6 0
02:05 1018 30.06 847 25.01 21.9 71.5 47 10.3 50.5 0
02:06 1018 30.06 847 25.01 21.8 71.2 47 10.1 50.2 0
02:07 1018 30.06 847 25.01 21.7 71 46 9.7 49.5 0
02:08 1018 30.06 847 25.01 21.7 71 44 9.2 48.6 0
02:09 1018 30.06 847 25.01 21.8 71.3 44 9.4 48.8 0
02:10 1018 30.06 847 25.01 21.8 71.3 45 9.6 49.3 0
02:11 1018 30.06 847 25.01 21.7 71.1 46 9.8 49.7 0
02:12 1018 30.06 847 25.01 21.6 70.9 47 9.9 49.7 0
02:13 1018 30.06 847 25.01 21.5 70.7 45 9.3 48.7 0
02:14 1018 30.06 847 25.01 21.5 70.7 46 9.5 49 0
02:15 1018 30.06 847 25.01 21.5 70.8 46 9.6 49.3 0
02:16 1018 30.06 847 25.01 21.6 70.8 44 8.8 47.9 0
02:17 1018 30.06 847 25.01 21.8 71.3 43 8.8 47.8 0
02:18 1018 30.06 847 25.01 22 71.7 43 9.1 48.3 0
02:19 1018 30.06 847 25.01 22 71.7 43 9.2 48.5 0
02:20 1018 30.06 847 25.01 21.9 71.5 44 9.2 48.6 0
02:21 1018 30.06 847 25.01 21.9 71.4 42 8.4 47.2 0
02:22 1018 30.06 847 25.01 22.1 71.8 41 8.6 47.4 0
02:23 1018 30.06 847 25.01 22.3 72.1 40 8.4 47 0
02:24 1018 30.06 847 25.01 22.4 72.3 40 8.2 46.8 0
02:25 1018 30.06 847 25.01 22.5 72.5 40 8.3 47 0
02:26 1018 30.06 847 25.01 22.6 72.7 39 8.2 46.8 0
02:27 1018 30.06 847 25.01 22.7 72.8 39 8.3 46.9 0
02:28 1018 30.06 847 25.01 22.7 72.8 39 8.1 46.6 0
02:29 1018 30.06 847 25.01 22.8 73 39 8.3 46.9 0
02:30 1018 30.06 847 25.01 22.8 73 39 8.3 46.9 0
02:31 1018 30.06 847 25.01 22.8 73 39 8.3 46.9 0
02:32 1018 30.06 847 25.01 22.8 73.1 39 8.2 46.7 0
02:33 1018 30.06 847 25.01 22.8 73.1 39 8.3 47 0
02:34 1018 30.06 847 25.01 22.8 73 39 8.4 47.1 0
02:35 1018 30.06 847 25.01 22.8 73 39 8.2 46.7 0
02:36 1018 30.06 847 25.01 22.8 73.1 38 8 46.3 0
02:37 1018 30.06 847 25.01 22.9 73.3 38 8 46.4 0
02:38 1018 30.06 847 25.01 23 73.5 37 7.8 46 0
02:39 1018 30.06 847 25.01 23.1 73.5 38 8.1 46.5 0
02:40 1018 30.06 847 25.01 23 73.4 38 8 46.5 0
02:41 1018 30.06 847 25.01 22.9 73.3 38 8.2 46.7 0
02:42 1018 30.06 847 25.01 22.8 73.1 39 8.3 46.9 0
02:43 1018 30.06 847 25.01 22.7 72.9 38 7.8 46.1 0
02:44 1018 30.06 847 25.01 22.8 73.1 38 8 46.4 0
02:45 1018 30.06 847 25.01 22.8 73.1 38 7.9 46.2 0
02:46 1018 30.06 847 25.01 22.8 73.1 38 8.1 46.6 0
02:47 1018 30.06 847 25.01 22.8 73.1 39 8.1 46.7 0
02:48 1018 30.06 847 25.01 22.8 73.1 38 7.8 46.1 0
02:49 1018 30.06 847 25.01 23 73.4 37 7.6 45.7 0
02:50 1018 30.06 847 25.01 23.2 73.8 36 7.5 45.5 0
02:51 1018 30.06 847 25.01 23.4 74.1 35 7.1 44.8 0
02:52 1018 30.06 847 25.01 23.7 74.6 35 7.4 45.2 0
02:53 1018 30.06 847 25.01 23.8 74.8 35 7.6 45.6 0
02:54 1018 30.06 847 25.01 23.7 74.7 36 8 46.3 0
02:55 1018 30.06 847 25.01 23.5 74.3 38 8.5 47.3 0
02:56 1018 30.06 847 25.01 23.1 73.6 39 8.5 47.3 0
02:57 1018 30.06 847 25.01 22.8 73 39 8.4 47.2 0
02:58 1018 30.06 847 25.01 22.6 72.6 39 8.2 46.7 0
02:59 1018 30.06 847 25.01 22.6 72.6 38 7.6 45.6 0
03:00 1018 30.06 847 25.01 22.8 73.1 37 7.6 45.8 0
03:01 1018 30.06 847 25.01 23.1 73.5 36 7.6 45.7 0
03:02 1018 30.06 847 25.01 23.1 73.7 37 7.7 45.9 0
03:03 1018 30.06 848 25.04 23.1 73.6 39 8.5 47.2 0
03:04 1018 30.06 848 25.04 22.8 73 35 6.7 44.1 0
03:05 1018 30.06 848 25.04 23.4 74.2 32 6.2 43.1 0
03:06 1018 30.06 848 25.04 24.2 75.6 31 6.2 43.2 0
03:07 1018 30.06 848 25.04 24.7 76.5 31 6.6 43.8 0
03:08 1018 30.06 847 25.01 24.9 76.8 31 6.9 44.4 0
03:09 1018 30.06 847 25.01 24.9 76.8 31 6.9 44.4 0
03:10 1018 30.06 847 25.01 24.8 76.6 30 6.3 43.4 0
03:11 1018 30.06 847 25.01 25 76.9 30 6.5 43.7 0
03:12 1018 30.06 847 25.01 25.1 77.2 30 6.7 44.1 0
03:13 1018 30.06 847 25.01 25.1 77.2 31 7.1 44.8 0
03:14 1018 30.06 847 25.01 25 76.9 31 6.9 44.4 0
03:15 1018 30.06 847 25.01 24.8 76.6 31 6.8 44.3 0
03:16 1018 30.06 847 25.01 24.6 76.4 32 7.1 44.8 0
03:17 1018 30.06 847 25.01 24.3 75.8 35 7.9 46.3 0
03:18 1018 30.06 847 25.01 23.8 74.8 36 8.1 46.5 0
03:19 1018 30.06 847 25.01 23.3 73.9 37 8.1 46.5 0
03:20 1018 30.06 847 25.01 22.9 73.2 38 8.1 46.5 0
03:21 1018 30.06 847 25.01 22.5 72.5 41 8.7 47.6 0
03:22 1018 30.06 847 25.01 22.2 71.9 40 8 46.3 0
03:23 1018 30.06 847 25.01 22.2 72 38 7.5 45.4 0
03:24 1018 30.06 847 25.01 22.5 72.4 38 7.7 45.9 0
03:25 1018 30.06 847 25.01 22.6 72.6 40 8.4 47.2 0
03:26 1018 30.06 847 25.01 22.2 72 42 9 48.3 0
03:27 1018 30.06 847 25.01 21.5 70.8 46 9.5 49.1 0
03:28 1018 30.06 847 25.01 20.9 69.7 47 9.4 49 0
03:29 1018 30.06 847 25.01 20.5 68.9 48 9.2 48.6 0
03:30 1018 30.06 847 25.01 20.2 68.3 48 9.1 48.3 0
03:31 1018 30.06 847 25.01 20 67.9 50 9.2 48.6 0
03:32 1018 30.06 847 25.01 19.7 67.5 51 9.3 48.8 0
03:33 1018 30.06 847 25.01 19.5 67.1 51 9.2 48.5 0
03:34 1018 30.06 847 25.01 19.3 66.8 53 9.6 49.2 0
03:35 1018 30.06 847 25.01 19.1 66.4 54 9.7 49.4 0
03:36 1018 30.06 847 25.01 18.9 65.9 55 9.7 49.4 0
03:37 1018 30.06 847 25.01 18.7 65.6 56 9.8 49.6 0
03:38 1018 30.06 847 25.01 18.4 65.2 57 9.8 49.6 0
03:39 1018 30.06 847 25.01 18.3 64.9 57 9.9 49.7 0
03:40 1018 30.06 847 25.01 18.1 64.6 58 9.7 49.5 0
03:41 1018 30.06 847 25.01 18.1 64.5 59 9.9 49.8 0
03:42 1018 30.06 847 25.01 17.9 64.3 60 10.1 50.2 0
03:43 1018 30.06 847 25.01 17.8 64 61 10.2 50.4 0
03:44 1018 30.06 847 25.01 17.7 63.8 62 10.3 50.5 0
03:45 1018 30.06 847 25.01 17.5 63.6 62 10.2 50.4 0
03:46 1018 30.06 847 25.01 17.5 63.5 62 10.2 50.3 0
03:47 1018 30.06 847 25.01 17.5 63.5 63 10.4 50.7 0
03:48 1018 30.06 847 25.01 17.4 63.4 63 10.3 50.6 0
03:49 1018 30.06 847 25.01 17.4 63.3 63 10.2 50.4 0
03:50 1018 30.06 847 25.01 17.4 63.3 62 10 50 0
03:51 1018 30.06 847 25.01 17.4 63.3 60 9.8 49.6 0
03:52 1018 30.06 847 25.01 17.7 63.9 58 9.3 48.8 0
03:53 1018 30.06 847 25.01 18.2 64.7 56 9.4 48.8 0
03:54 1018 30.06 847 25.01 18.7 65.6 53 8.9 48.1 0
03:55 1018 30.06 847 25.01 19.2 66.5 53 9.4 48.9 0
03:56 1018 30.06 847 25.01 19.5 67.1 52 9.4 49 0
03:57 1018 30.06 847 25.01 19.6 67.2 51 9.4 49 0
03:58 1018 30.06 847 25.01 19.6 67.3 52 9.7 49.4 0
03:59 1018 30.06 847 25.01 19.6 67.4 52 9.7 49.4 0
04:00 1018 30.06 847 25.01 19.7 67.4 52 9.6 49.3 0
04:01 1018 30.06 847 25.01 19.8 67.6 52 9.8 49.7 0
04:02 1018 30.06 847 25.01 19.7 67.5 53 10 50.1 0
04:03 1018 30.06 847 25.01 19.6 67.2 54 10.2 50.3 0
04:04 1018 30.06 847 25.01 19.3 66.8 56 10.4 50.8 0
04:05 1018 30.06 847 25.01 19.1 66.3 57 10.5 50.9 0
04:06 1018 30.06 847 25.01 18.7 65.7 58 10.5 50.9 0
04:07 1018 30.06 847 25.01 18.5 65.3 59 10.3 50.6 0
04:08 1018 30.06 847 25.01 18.4 65.1 59 10.3 50.6 0
04:09 1018 30.06 847 25.01 18.3 65 59 10.2 50.3 0
04:10 1018 30.06 847 25.01 18.4 65 56 9.6 49.3 0
04:11 1018 30.06 847 25.01 18.6 65.4 55 9.5 49 0
04:12 1018 30.06 847 25.01 18.8 65.8 55 9.7 49.5 0
04:13 1018 30.06 847 25.01 18.8 65.9 55 9.6 49.3 0
04:14 1018 30.06 847 25.01 18.9 66 54 9.5 49.1 0
04:15 1018 30.06 847 25.01 19.1 66.3 54 9.6 49.3 0
04:16 1018 30.06 847 25.01 19.2 66.5 54 9.7 49.5 0
04:17 1018 30.06 847 25.01 19.2 66.5 54 9.7 49.5 0
04:18 1018 30.06 847 25.01 19.2 66.5 54 9.7 49.4 0
04:19 1018 30.06 847 25.01 19.2 66.5 53 9.6 49.3 0
04:20 1018 30.06 847 25.01 19.2 66.5 55 10 50 0
04:21 1018 30.06 847 25.01 19 66.2 59 10.9 51.6 0
04:22 1018 30.06 847 25.01 18.6 65.5 61 11 51.7 0
04:23 1018 30.06 847 25.01 18.3 64.9 60 10.4 50.8 0
04:24 1018 30.06 847 25.01 18.1 64.6 60 10.4 50.7 0
04:25 1018 30.06 847 25.01 18.1 64.6 61 10.6 51.1 0
04:26 1018 30.06 847 25.01 18.1 64.5 61 10.4 50.8 0
04:27 1018 30.06 847 25.01 18 64.5 61 10.5 51 0
04:28 1018 30.06 847 25.01 18 64.3 62 10.6 51 0
04:29 1018 30.06 847 25.01 17.9 64.2 62 10.6 51.1 0
04:30 1018 30.06 847 25.01 17.8 64 63 10.7 51.3 0
04:31 1018 30.06 847 25.01 17.6 63.7 64 10.7 51.3 0
04:32 1018 30.06 847 25.01 17.5 63.6 64 10.7 51.3 0
04:33 1018 30.06 847 25.01 17.5 63.5 64 10.7 51.3 0
04:34 1018 30.06 847 25.01 17.4 63.4 64 10.7 51.3 0
04:35 1018 30.06 847 25.01 17.4 63.3 65 10.7 51.3 0
04:36 1018 30.06 847 25.01 17.4 63.3 65 10.8 51.5 0
04:37 1018 30.06 847 25.01 17.4 63.3 66 11 51.8 0
04:38 1018 30.06 847 25.01 17.3 63.1 66 11 51.8 0
04:39 1018 30.06 847 25.01 17.1 62.8 67 11.1 52 0
04:40 1018 30.06 847 25.01 17 62.7 67 11 51.9 0
04:41 1018 30.06 847 25.01 16.9 62.5 66 10.7 51.3 0
04:42 1018 30.06 847 25.01 17 62.5 66 10.7 51.2 0
04:43 1018 30.06 847 25.01 17 62.6 66 10.6 51.1 0
04:44 1018 30.06 847 25.01 17.1 62.8 65 10.6 51.1 0
04:45 1018 30.06 847 25.01 17.3 63.1 65 10.7 51.3 0
04:46 1018 30.06 847 25.01 17.3 63.2 65 10.7 51.3 0
04:47 1018 30.06 847 25.01 17.4 63.3 65 10.8 51.5 0
04:48 1018 30.06 847 25.01 17.4 63.3 65 10.9 51.7 0
04:49 1018 30.06 847 25.01 17.3 63.2 66 11.1 52 0
04:50 1018 30.06 847 25.01 17.2 63 66 10.8 51.4 0
04:51 1018 30.06 847 25.01 17.3 63.1 65 10.6 51.1 0
04:52 1018 30.06 847 25.01 17.4 63.4 65 10.8 51.4 0
04:53 1018 30.06 847 25.01 17.5 63.5 65 10.9 51.5 0
04:54 1018 30.06 847 25.01 17.6 63.6 64 10.8 51.4 0
04:55 1018 30.06 847 25.01 17.7 63.8 63 10.6 51 0
04:56 1018 30.06 847 25.01 17.8 64.1 62 10.6 51 0
04:57 1018 30.06 847 25.01 18 64.4 62 10.6 51.1 0
04:58 1018 30.06 847 25.01 18.1 64.5 62 10.8 51.4 0
04:59 1018 30.06 847 25.01 18.1 64.5 62 10.7 51.3 0
05:00 1018 30.06 847 25.01 18.1 64.7 61 10.7 51.2 0
05:01 1018 30.06 847 25.01 18.2 64.7 62 10.8 51.4 0
05:02 1018 30.06 847 25.01 18.2 64.8 61 10.7 51.3 0
05:03 1018 30.06 847 25.01 18.2 64.8 62 10.8 51.5 0
05:04 1018 30.06 847 25.01 18.2 64.7 62 11 51.7 0
05:05 1018 30.06 847 25.01 18.2 64.7 62 10.9 51.6 0
05:06 1018 30.06 847 25.01 18.1 64.6 63 11 51.8 0
05:07 1018 30.06 847 25.01 18.1 64.5 64 11.2 52.1 0
05:08 1018 30.06 847 25.01 17.9 64.3 63 11 51.7 0
05:09 1018 30.06 847 25.01 17.9 64.3 64 11 51.8 0
05:10 1018 30.06 847 25.01 17.9 64.3 64 11.2 52.2 0
05:11 1018 30.06 847 25.01 17.9 64.2 64 11.2 52.1 0
05:12 1018 30.06 847 25.01 17.9 64.2 65 11.4 52.5 0
05:13 1018 30.06 847 25.01 17.9 64.2 65 11.4 52.5 0
05:14 1018 30.06 847 25.01 17.8 64.1 66 11.4 52.6 0
05:15 1018 30.06 847 25.01 17.8 64 66 11.5 52.8 0
05:16 1018 30.06 847 25.01 17.7 63.9 67 11.7 53.1 0
05:17 1018 30.06 847 25.01 17.7 63.9 67 11.7 53.1 0
05:18 1018 30.06 847 25.01 17.7 63.8 68 11.8 53.3 0
05:19 1018 30.06 847 25.01 17.6 63.7 69 11.9 53.3 0
05:20 1018 30.06 847 25.01 17.5 63.5 69 11.8 53.3 0
05:21 1018 30.06 847 25.01 17.5 63.4 69 11.8 53.3 0
05:22 1018 30.06 847 25.01 17.4 63.4 69 11.8 53.2 0
05:23 1018 30.06 847 25.01 17.4 63.2 69 11.7 53.1 0
05:24 1018 30.06 847 25.01 17.3 63.2 69 11.7 53.1 0
05:25 1018 30.06 847 25.01 17.3 63.2 69 11.6 52.9 0
05:26 1018 30.06 847 25.01 17.3 63.1 69 11.6 52.8 0
05:27 1018 30.06 847 25.01 17.3 63.1 69 11.7 53 0
05:28 1018 30.06 847 25.01 17.2 62.9 70 11.7 53.1 0
05:29 1018 30.06 847 25.01 17.1 62.7 71 11.8 53.3 0
05:30 1018 30.06 847 25.01 17 62.6 72 11.9 53.4 0
05:31 1018 30.06 847 25.01 16.8 62.3 72 11.7 53.1 0
05:32 1018 30.06 847 25.01 16.8 62.3 71 11.5 52.7 0
05:33 1018 30.06 847 25.01 16.9 62.3 70 11.3 52.4 0
05:34 1018 30.06 847 25.01 17 62.5 69 11.3 52.3 0
05:35 1018 30.06 847 25.01 17.1 62.7 68 11.1 52 0
05:36 1018 30.06 847 25.01 17.2 63 67 11.2 52.1 0
05:37 1018 30.06 847 25.01 17.3 63.1 67 11.1 52 0
05:38 1018 30.06 847 25.01 17.4 63.3 66 11.1 52 0
05:39 1018 30.06 847 25.01 17.4 63.3 66 11 51.8 0
05:40 1018 30.06 847 25.01 17.5 63.4 66 11 51.9 0
05:41 1018 30.06 847 25.01 17.6 63.6 65 11 51.8 0
05:42 1018 30.06 847 25.01 17.6 63.7 65 11 51.8 0
05:43 1018 30.06 847 25.01 17.6 63.7 64 10.9 51.7 0
05:44 1018 30.06 847 25.01 17.7 63.8 65 11.1 51.9 0
05:45 1018 30.06 847 25.01 17.6 63.8 65 11.1 51.9 0
05:46 1018 30.06 847 25.01 17.6 63.6 66 11.1 52 0
05:47 1018 30.06 847 25.01 17.5 63.6 65 11.1 51.9 0
05:48 1018 30.06 847 25.01 17.5 63.4 65 10.9 51.7 0
05:49 1018 30.06 847 25.01 17.5 63.4 65 10.8 51.5 0
05:50 1018 30.06 847 25.01 17.5 63.5 65 10.8 51.5 0
05:51 1018 30.06 847 25.01 17.5 63.6 64 10.8 51.4 0
05:52 1018 30.06 847 25.01 17.5 63.5 64 10.8 51.4 0
05:53 1018 30.06 847 25.01 17.5 63.5 65 10.8 51.5 0
05:54 1018 30.06 847 25.01 17.5 63.5 64 10.8 51.4 0
05:55 1018 30.06 847 25.01 17.5 63.4 65 10.8 51.4 0
05:56 1018 30.06 847 25.01 17.4 63.4 65 10.9 51.6 0
05:57 1018 30.06 847 25.01 17.4 63.3 65 10.8 51.4 0
05:58 1018 30.06 847 25.01 17.3 63.2 64 10.6 51.1 0
05:59 1018 30.06 847 25.01 17.4 63.2 64 10.6 51 0
06:00 1018 30.06 847 25.01 17.5 63.5 63 10.5 51 0
06:01 1018 30.06 847 25.01 17.6 63.7 63 10.5 50.9 0
06:02 1018 30.06 847 25.01 17.8 64 62 10.5 50.9 0
06:03 1018 30.06 847 25.01 17.8 64 63 10.8 51.4 0
06:04 1018 30.06 847 25.01 17.7 63.9 64 10.8 51.5 0
06:05 1018 30.06 847 25.01 17.6 63.7 64 10.9 51.7 0
06:06 1018 30.06 847 25.01 17.5 63.5 65 11 51.8 0
06:07 1018 30.06 847 25.01 17.3 63.2 66 11.1 51.9 0
06:08 1018 30.06 847 25.01 17.1 62.8 67 11 51.7 0
06:09 1018 30.06 847 25.01 17 62.6 67 11 51.8 0
06:10 1018 30.06 847 25.01 16.9 62.4 68 10.9 51.7 0
06:11 1018 30.06 847 25.01 16.8 62.3 68 10.9 51.6 0
06:12 1018 30.06 847 25.01 16.8 62.2 68 10.9 51.6 0
06:13 1018 30.06 847 25.01 16.7 62.1 68 10.8 51.5 0
06:14 1018 30.06 847 25.01 16.7 62 68 10.7 51.3 0
06:15 1018 30.06 847 25.01 16.7 62.1 67 10.7 51.3 0
06:16 1018 30.06 847 25.01 16.7 62.1 67 10.7 51.2 0
06:17 1018 30.06 847 25.01 16.7 62.1 67 10.5 51 0
06:18 1018 30.06 847 25.01 16.8 62.3 67 10.7 51.2 0
06:19 1018 30.06 847 25.01 16.8 62.3 67 10.8 51.4 0
06:20 1018 30.06 847 25.01 16.8 62.3 67 10.7 51.2 0
06:21 1018 30.06 847 25.01 16.9 62.4 66 10.7 51.2 0
06:22 1018 30.06 847 25.01 17 62.6 66 10.7 51.2 0
06:23 1018 30.06 847 25.01 17 62.7 67 10.9 51.7 0
06:24 1018 30.06 847 25.01 17 62.5 68 11 51.8 0
06:25 1018 30.06 847 25.01 16.9 62.3 69 11.1 52 0
06:26 1018 30.06 847 25.01 16.7 62 69 11.1 52.1 0
06:27 1018 30.06 847 25.01 16.6 61.9 69 11.1 51.9 0
06:28 1018 30.06 847 25.01 16.6 61.8 69 11 51.7 0
06:29 1018 30.06 847 25.01 16.6 61.8 69 11 51.8 0
06:30 1018 30.06 847 25.01 16.6 61.9 70 11.1 51.9 0
06:31 1018 30.06 847 25.01 16.6 61.9 69 11 51.9 0
06:32 1018 30.06 847 25.01 16.6 61.9 69 11 51.8 0
06:33 1018 30.06 847 25.01 16.6 61.9 69 11 51.9 0
06:34 1018 30.06 847 25.01 16.6 61.8 70 11.1 52 0
06:35 1018 30.06 847 25.01 16.5 61.7 69 10.9 51.6 0
06:36 1018 30.06 847 25.01 16.6 62 68 10.9 51.6 0
06:37 1018 30.06 847 25.01 16.7 62 69 11 51.8 0
06:38 1018 30.06 847 25.01 16.8 62.2 68 10.8 51.5 0
06:39 1018 30.06 847 25.01 16.8 62.3 69 11.1 52.1 0
06:40 1018 30.06 847 25.01 16.8 62.3 68 11 51.7 0
06:41 1018 30.06 848 25.04 16.8 62.3 69 11.2 52.1 0
06:42 1018 30.06 848 25.04 16.9 62.4 69 11.3 52.3 0
06:43 1018 30.06 848 25.04 16.9 62.4 69 11.2 52.1 0
06:44 1018 30.06 848 25.04 17 62.5 65 10.5 50.9 0
06:45 1018 30.06 848 25.04 17.2 62.9 64 10.3 50.6 0
06:46 1018 30.06 848 25.04 17.4 63.4 67 11.4 52.5 0
06:47 1018 30.06 848 25.04 17.4 63.3 67 11.2 52.2 0
06:48 1018 30.06 848 25.04 17.2 63 68 11.3 52.3 0
06:49 1018 30.06 848 25.04 17.1 62.7 67 10.9 51.6 0
06:50 1018 30.06 848 25.04 17.1 62.7 67 11 51.8 0
06:51 1018 30.06 848 25.04 17 62.7 66 10.7 51.2 0
06:52 1018 30.06 848 25.04 17 62.6 68 11.1 52 0
06:53 1018 30.06 848 25.04 17 62.6 69 11.4 52.4 0
06:54 1018 30.06 848 25.04 16.9 62.4 69 11.2 52.2 0
06:55 1018 30.06 848 25.04 16.8 62.3 69 11.2 52.1 0
06:56 1018 30.06 848 25.04 16.8 62.3 70 11.4 52.4 0
06:57 1018 30.06 848 25.04 16.8 62.2 69 11 51.9 0
06:58 1018 30.06 848 25.04 16.8 62.2 69 11.2 52.1 0
06:59 1018 30.06 848 25.04 16.8 62.2 70 11.3 52.3 0
07:00 1018 30.06 848 25.04 16.7 62.1 72 11.8 53.2 0
07:01 1018 30.06 848 25.04 16.6 61.8 71 11.3 52.3 0
07:02 1018 30.06 847 25.01 16.6 61.8 71 11.4 52.6 0
07:03 1018 30.06 848 25.04 16.6 61.8 72 11.5 52.8 0
07:04 1018 30.06 848 25.04 16.5 61.6 73 11.7 53 0
07:05 1018 30.06 847 25.01 16.3 61.4 74 11.7 53 0
07:06 1018 30.06 847 25.01 16.3 61.3 74 11.7 53.1 0
07:07 1018 30.06 847 25.01 16.3 61.3 74 11.8 53.2 0
07:08 1018 30.06 847 25.01 16.3 61.3 75 11.8 53.3 0
07:09 1018 30.06 847 25.01 16.3 61.4 75 12 53.5 0
07:10 1018 30.06 847 25.01 16.3 61.4 75 11.9 53.3 0
07:11 1018 30.06 847 25.01 16.5 61.6 72 11.5 52.8 0
07:12 1018 30.06 847 25.01 16.6 61.9 73 11.7 53.1 0
07:13 1018 30.06 847 25.01 16.7 62.1 72 11.7 53.1 0
07:14 1018 30.06 847 25.01 16.9 62.3 71 11.5 52.8 0
07:15 1018 30.06 847 25.01 17.1 62.7 69 11.5 52.7 0
07:16 1018 30.06 847 25.01 17.3 63.1 70 11.7 53.1 0
07:17 1018 30.06 847 25.01 17.5 63.5 69 11.7 53.1 0
07:18 1018 30.06 847 25.01 17.7 63.8 68 11.7 53 0
07:19 1018 30.06 847 25.01 17.8 64.1 68 12 53.6 0
07:20 1018 30.06 847 25.01 18 64.3 68 12 53.7 0
07:21 1018 30.06 847 25.01 18.1 64.6 69 12.4 54.3 0
07:22 1018 30.06 847 25.01 18.1 64.7 70 12.7 54.9 0
07:23 1018 30.06 847 25.01 18.2 64.8 71 13 55.4 0
07:24 1018 30.06 847 25.01 18.2 64.8 70 12.7 54.8 0
07:25 1018 30.06 847 25.01 18.3 64.9 70 12.8 55 0
07:26 1018 30.06 847 25.01 18.3 64.9 69 12.5 54.5 0
07:27 1018 30.06 847 25.01 18.3 65 69 12.6 54.7 0
07:28 1018 30.06 847 25.01 18.4 65.2 69 12.8 55 0
07:29 1018 30.06 847 25.01 18.6 65.4 68 12.5 54.5 0
07:30 1018 30.06 847 25.01 18.8 65.8 68 12.7 54.9 0
07:31 1018 30.06 847 25.01 18.9 66.1 68 12.9 55.2 0
07:32 1018 30.06 847 25.01 19.1 66.3 67 12.9 55.2 0
07:33 1018 30.06 847 25.01 19.2 66.5 66 12.8 55 0
07:34 1018 30.06 847 25.01 19.3 66.7 68 13.4 56.1 0
07:35 1018 30.06 847 25.01 19.3 66.8 65 12.8 55 0
07:36 1018 30.06 847 25.01 19.5 67 67 13.3 56 0
07:37 1018 30.06 847 25.01 19.5 67.1 68 13.5 56.4 0
07:38 1018 30.06 847 25.01 19.7 67.4 68 13.8 56.8 0
07:39 1018 30.06 847 25.01 19.8 67.6 68 13.7 56.6 0
07:40 1018 30.06 847 25.01 19.9 67.9 67 13.8 56.8 0
07:41 1018 30.06 847 25.01 20 68 68 13.9 57 0
07:42 1018 30.06 847 25.01 20.2 68.3 69 14.3 57.8 0
07:43 1018 30.06 847 25.01 20.3 68.5 69 14.5 58.1 0
07:44 1018 30.06 847 25.01 20.4 68.8 69 14.6 58.2 0
07:45 1018 30.06 847 25.01 20.5 68.9 67 14.4 57.8 0
07:46 1018 30.06 847 25.01 20.7 69.2 69 14.8 58.7 0
07:47 1018 30.06 847 25.01 20.8 69.4 65 14.1 57.3 0
07:48 1018 30.06 847 25.01 20.9 69.7 66 14.3 57.8 0
07:49 1018 30.06 847 25.01 21.1 70.1 64 14.2 57.6 0
07:50 1018 30.06 847 25.01 21.3 70.3 62 13.8 56.9 0
07:51 1018 30.06 847 25.01 21.4 70.5 62 14 57.2 0
07:52 1018 30.06 847 25.01 21.5 70.7 61 13.7 56.6 0
07:53 1018 30.06 847 25.01 21.6 70.8 61 13.9 57 0
07:54 1018 30.06 847 25.01 21.7 71 62 14.3 57.7 0
07:55 1018 30.06 847 25.01 21.8 71.2 62 14.3 57.7 0
07:56 1018 30.06 847 25.01 21.9 71.4 63 14.6 58.2 0
07:57 1018 30.06 847 25.01 22 71.7 62 14.4 58 0
07:58 1018 30.06 847 25.01 22.1 71.8 62 14.7 58.5 0
07:59 1018 30.06 847 25.01 22.3 72.1 58 13.8 56.8 0
08:00 1018 30.06 848 25.04 22.4 72.2 60 14.4 57.9 0
08:01 1018 30.06 848 25.04 22.5 72.5 56 13.4 56.1 0
08:02 1018 30.06 848 25.04 22.7 72.8 57 14 57.1 0
08:03 1018 30.06 848 25.04 22.8 73 59 14.5 58.1 0
08:04 1018 30.06 848 25.04 22.9 73.3 56 13.7 56.7 0
08:05 1018 30.06 848 25.04 23.1 73.5 57 14.2 57.6 0
08:06 1018 30.06 848 25.04 23.1 73.7 60 15.1 59.1 0
08:07 1018 30.06 848 25.04 23.2 73.8 58 14.6 58.2 0
08:08 1018 30.06 848 25.04 23.2 73.8 58 14.6 58.4 0
08:09 1018 30.06 848 25.04 23.1 73.6 56 14.1 57.3 0
08:10 1018 30.06 848 25.04 23 73.4 58 14.4 57.8 0
08:11 1018 30.06 848 25.04 23 73.3 60 14.8 58.7 0
08:12 1018 30.06 848 25.04 22.9 73.3 61 15.2 59.3 0
08:13 1018 30.06 848 25.04 22.9 73.2 61 15.1 59.1 0
08:14 1019 30.09 848 25.04 23 73.3 61 15.1 59.2 0
08:15 1019 30.09 848 25.04 23 73.4 59 14.8 58.6 0
08:16 1019 30.09 848 25.04 23.1 73.6 57 14.2 57.6 0
08:17 1019 30.09 848 25.04 23.2 73.8 60 15.1 59.2 0
08:18 1019 30.09 848 25.04 23.4 74.2 59 15 59 0
08:19 1019 30.09 848 25.04 23.6 74.5 59 15.2 59.3 0
08:20 1019 30.09 848 25.04 23.8 74.8 57 14.8 58.6 0
08:21 1019 30.09 848 25.04 24 75.2 59 15.5 59.9 0
08:22 1019 30.09 848 25.04 24.1 75.4 56 15.1 59.1 0
08:23 1019 30.09 848 25.04 24.3 75.7 51 13.8 56.9 0
08:24 1019 30.09 848 25.04 24.4 75.9 53 14.5 58.1 0
08:25 1019 30.09 848 25.04 24.5 76 56 15.4 59.7 0
08:26 1019 30.09 848 25.04 24.5 76.1 50 13.5 56.3 0
08:27 1019 30.09 848 25.04 24.5 76 55 14.9 58.7 0
08:28 1019 30.09 848 25.04 24.5 76.1 57 15.5 59.8 0
08:29 1019 30.09 848 25.04 24.5 76.1 59 16.2 61.1 0
08:30 1019 30.09 848 25.04 24.6 76.3 52 14.3 57.7 0
08:31 1019 30.09 848 25.04 24.7 76.4 52 14.3 57.7 0
08:32 1019 30.09 848 25.04 24.7 76.5 54 14.9 58.8 0
08:33 1019 30.09 848 25.04 24.7 76.5 58 16.1 61 0
08:34 1019 30.09 848 25.04 24.7 76.5 56 15.4 59.7 0
08:35 1018 30.06 848 25.04 24.7 76.4 57 15.9 60.5 0
08:36 1018 30.06 848 25.04 24.7 76.5 55 15.4 59.6 0
08:37 1018 30.06 848 25.04 24.7 76.5 53 14.7 58.5 0
08:38 1019 30.09 848 25.04 24.8 76.7 51 14.1 57.5 0
08:39 1019 30.09 848 25.04 24.9 76.7 54 15.1 59.1 0
08:40 1018 30.06 848 25.04 24.9 76.8 53 14.9 58.8 0
08:41 1018 30.06 848 25.04 24.9 76.9 54 15.1 59.2 0
08:42 1019 30.09 848 25.04 25 77 56 15.9 60.6 0
08:43 1019 30.09 848 25.04 25.1 77.1 56 15.8 60.4 0
08:44 1019 30.09 848 25.04 25.1 77.2 56 15.8 60.4 0
08:45 1019 30.09 848 25.04 25.2 77.3 54 15.2 59.4 0
08:46 1019 30.09 848 25.04 25.2 77.3 52 14.9 58.8 0
08:47 1019 30.09 848 25.04 25.2 77.3 60 17.1 62.8 0
08:48 1019 30.09 848 25.04 25.2 77.3 51 14.4 58 0
08:49 1019 30.09 848 25.04 25.1 77.3 59 16.6 62 0
08:50 1019 30.09 848 25.04 25.2 77.3 52 14.9 58.8 0
08:51 1019 30.09 848 25.04 25.2 77.3 56 16 60.7 0
08:52 1019 30.09 848 25.04 25.3 77.5 57 16.3 61.4 0
08:53 1019 30.09 848 25.04 25.4 77.8 57 16.4 61.5 0
08:54 1019 30.09 848 25.04 25.7 78.2 53 15.5 59.8 0
08:55 1019 30.09 848 25.04 25.9 78.6 52 15.5 59.9 0
08:56 1019 30.09 848 25.04 26.2 79.2 49 14.7 58.5 0
08:57 1019 30.09 848 25.04 26.6 79.9 48 14.8 58.6 0
08:58 1019 30.09 848 25.04 26.9 80.4 42 13.2 55.8 0
08:59 1019 30.09 848 25.04 27.1 80.8 45 14.5 58.1 0
09:00 1019 30.09 848 25.04 27.5 81.4 43 14.1 57.3 0
09:01 1019 30.09 848 25.04 27.7 81.9 43 14.1 57.4 0
09:02 1019 30.09 848 25.04 28.1 82.5 35 11.5 52.7 0
09:03 1019 30.09 848 25.04 28.2 82.7 34 11.3 52.3 0
09:04 1019 30.09 848 25.04 28.3 82.9 38 12.9 55.2 0
09:05 1019 30.09 848 25.04 28.3 83 38 13.1 55.5 0
09:06 1019 30.09 848 25.04 28.2 82.8 38 13 55.4 0
09:07 1019 30.09 848 25.04 28 82.4 39 13.1 55.5 0
09:08 1019 30.09 848 25.04 27.8 82.1 38 12.5 54.5 0
09:09 1019 30.09 848 25.04 27.7 81.8 37 12 53.6 0
09:10 1019 30.09 848 25.04 27.6 81.6 36 11.6 52.8 0
09:11 1019 30.09 848 25.04 27.5 81.5 37 11.9 53.3 0
09:12 1019 30.09 848 25.04 27.5 81.5 40 13 55.4 0
09:13 1019 30.09 848 25.04 27.4 81.4 40 13.1 55.5 0
09:14 1019 30.09 848 25.04 27.3 81.2 38 12.1 53.8 0
09:15 1018 30.06 848 25.04 27.2 81 39 12.2 53.9 0
09:16 1019 30.09 848 25.04 27.2 80.9 41 13 55.5 0
09:17 1018 30.06 848 25.04 27.1 80.7 42 13.4 56.1 0
09:18 1018 30.06 848 25.04 27 80.7 44 14 57.2 0
09:19 1019 30.09 848 25.04 27 80.6 43 13.7 56.6 0
09:20 1019 30.09 848 25.04 27 80.5 48 15.2 59.3 0
09:21 1019 30.09 848 25.04 26.9 80.4 41 13 55.3 0
09:22 1019 30.09 848 25.04 26.8 80.3 44 13.7 56.7 0
09:23 1019 30.09 848 25.04 26.8 80.3 46 14.4 58 0
09:24 1018 30.06 848 25.04 26.8 80.2 47 14.7 58.4 0
09:25 1019 30.09 848 25.04 26.8 80.2 44 13.8 56.8 0
09:26 1019 30.09 848 25.04 26.8 80.2 43 13.5 56.3 0
09:27 1019 30.09 848 25.04 26.8 80.3 51 16.1 61 0
09:28 1019 30.09 848 25.04 26.9 80.4 46 14.6 58.3 0
09:29 1019 30.09 848 25.04 26.9 80.5 42 13.1 55.5 0
09:30 1018 30.06 848 25.04 26.9 80.4 40 12.4 54.3 0
09:31 1018 30.06 848 25.04 26.7 80 42 13 55.3 0
09:32 1018 30.06 848 25.04 26.5 79.7 45 13.7 56.6 0
09:33 1018 30.06 848 25.04 26.3 79.3 46 14.1 57.3 0
09:34 1018 30.06 848 25.04 26.1 79 49 14.6 58.3 0
09:35 1018 30.06 848 25.04 25.9 78.7 46 13.5 56.3 0
09:36 1018 30.06 848 25.04 25.8 78.5 50 14.9 58.8 0
09:37 1018 30.06 848 25.04 25.7 78.3 48 13.9 57.1 0
09:38 1018 30.06 848 25.04 25.7 78.2 48 14.1 57.4 0
09:39 1018 30.06 848 25.04 25.6 78.1 47 13.5 56.3 0
09:40 1018 30.06 848 25.04 25.6 78 52 15.1 59.2 0
09:41 1018 30.06 848 25.04 25.6 78 50 14.5 58.2 0
09:42 1018 30.06 848 25.04 25.6 78.1 48 14.1 57.3 0
09:43 1018 30.06 848 25.04 25.7 78.3 41 11.6 52.9 0
09:44 1018 30.06 848 25.04 25.9 78.6 47 13.8 56.9 0
09:45 1018 30.06 848 25.04 26.1 79 41 12.1 53.9 0
09:46 1018 30.06 848 25.04 26.3 79.3 38 11.1 52 0
09:47 1018 30.06 848 25.04 26.3 79.3 39 11.5 52.8 0
09:48 1018 30.06 848 25.04 26.4 79.5 45 13.7 56.6 0
09:49 1018 30.06 848 25.04 26.5 79.6 43 13.2 55.7 0
09:50 1018 30.06 848 25.04 26.5 79.6 40 12.1 53.9 0
09:51 1018 30.06 848 25.04 26.4 79.6 44 13.2 55.8 0
09:52 1018 30.06 848 25.04 26.4 79.5 41 12.5 54.5 0
09:53 1018 30.06 848 25.04 26.3 79.3 39 11.5 52.7 0
09:54 1018 30.06 848 25.04 26.3 79.4 40 11.9 53.5 0
09:55 1018 30.06 848 25.04 26.4 79.5 35 9.9 49.8 0
09:56 1018 30.06 848 25.04 26.4 79.6 40 12 53.6 0
09:57 1018 30.06 848 25.04 26.4 79.5 42 12.5 54.5 0
09:58 1018 30.06 848 25.04 26.4 79.6 43 13.1 55.6 0
09:59 1018 30.06 848 25.04 26.6 79.9 44 13.5 56.2 0
10:00 1018 30.06 848 25.04 26.8 80.2 48 15.2 59.4 0
10:01 1018 30.06 848 25.04 27 80.6 40 12.7 54.8 0
10:02 1018 30.06 848 25.04 27.2 80.9 37 11.5 52.8 0
10:03 1018 30.06 848 25.04 27.3 81.2 39 12.3 54.2 0
10:04 1018 30.06 848 25.04 27.5 81.5 34 10.5 50.8 0
10:05 1018 30.06 848 25.04 27.6 81.7 29 8.4 47.2 0
10:06 1018 30.06 848 25.04 27.6 81.7 32 9.7 49.4 0
10:07 1018 30.06 848 25.04 27.7 81.8 30 8.7 47.7 0
10:08 1018 30.06 848 25.04 27.8 82 33 10.1 50.2 0
10:09 1018 30.06 848 25.04 27.8 82.1 33 10.6 51 0
10:10 1018 30.06 848 25.04 27.9 82.1 38 12.7 54.8 0
10:11 1018 30.06 848 25.04 27.9 82.2 37 12.1 53.7 0
10:12 1018 30.06 848 25.04 27.9 82.1 32 9.8 49.6 0
10:13 1018 30.06 848 25.04 27.9 82.1 39 12.9 55.3 0
10:14 1018 30.06 848 25.04 27.8 82 39 13 55.4 0
10:15 1018 30.06 848 25.04 27.6 81.7 29 8.3 46.9 0
10:16 1018 30.06 848 25.04 27.5 81.4 35 10.7 51.3 0
10:17 1018 30.06 848 25.04 27.4 81.2 31 9.1 48.5 0
10:18 1018 30.06 848 25.04 27.3 81.2 36 11.4 52.5 0
10:19 1018 30.06 847 25.01 27.1 80.9 35 10.8 51.4 0
10:20 1018 30.06 848 25.04 27 80.6 34 10.1 50.2 0
10:21 1018 30.06 847 25.01 26.9 80.4 36 11 51.8 0
10:22 1018 30.06 847 25.01 26.8 80.3 39 11.9 53.5 0
10:23 1018 30.06 847 25.01 26.8 80.3 42 13.1 55.6 0
10:24 1018 30.06 847 25.01 26.8 80.3 36 10.9 51.6 0
10:25 1018 30.06 847 25.01 26.8 80.3 39 12.1 53.8 0
10:26 1018 30.06 847 25.01 26.8 80.3 40 12.3 54.2 0
10:27 1018 30.06 847 25.01 26.8 80.3 39 11.9 53.4 0
10:28 1018 30.06 847 25.01 26.8 80.3 33 9.3 48.8 0
10:29 1018 30.06 847 25.01 26.9 80.4 37 11.2 52.2 0
10:30 1018 30.06 847 25.01 27 80.7 41 13 55.4 0
10:31 1018 30.06 847 25.01 27.2 80.9 39 12.2 53.9 0
10:32 1018 30.06 847 25.01 27.2 81 42 13.5 56.3 0
10:33 1018 30.06 847 25.01 27.3 81.1 46 14.8 58.6 0
10:34 1018 30.06 847 25.01 27.4 81.3 41 13.1 55.6 0
10:35 1018 30.06 847 25.01 27.6 81.6 39 12.5 54.4 0
10:36 1018 30.06 847 25.01 27.7 81.9 37 11.8 53.3 0
10:37 1018 30.06 847 25.01 27.9 82.1 39 13 55.4 0
10:38 1018 30.06 847 25.01 28 82.4 36 11.6 52.9 0
10:39 1018 30.06 847 25.01 28.1 82.5 37 12.1 53.8 0
10:40 1018 30.06 847 25.01 28 82.5 30 9.3 48.8 0
10:41 1018 30.06 847 25.01 28.1 82.5 32 10.1 50.1 0
10:42 1018 30.06 847 25.01 28.2 82.7 36 12.2 53.9 0
10:43 1018 30.06 847 25.01 28.3 83 36 12 53.6 0
10:44 1018 30.06 847 25.01 28.5 83.3 34 11.5 52.6 0
10:45 1018 30.06 847 25.01 28.5 83.2 30 9.7 49.4 0
10:46 1018 30.06 847 25.01 28.5 83.3 35 11.9 53.4 0
10:47 1018 30.06 847 25.01 28.5 83.3 30 9.5 49.2 0
10:48 1018 30.06 847 25.01 28.6 83.5 31 10.3 50.6 0
10:49 1018 30.06 847 25.01 28.8 83.8 32 10.7 51.3 0
10:50 1018 30.06 847 25.01 28.8 83.8 32 10.8 51.5 0
10:51 1018 30.06 847 25.01 28.8 83.8 32 10.8 51.4 0
10:52 1018 30.06 847 25.01 28.7 83.7 29 9.3 48.7 0
10:53 1018 30.06 847 25.01 28.7 83.6 35 12.2 53.9 0
10:54 1018 30.06 847 25.01 28.7 83.6 32 10.5 50.9 0
10:55 1018 30.06 847 25.01 28.7 83.6 34 11.7 53.1 0
10:56 1018 30.06 847 25.01 28.8 83.8 33 11.3 52.4 0
10:57 1018 30.06 847 25.01 28.9 84 33 11.1 52.1 0
10:58 1018 30.06 847 25.01 29 84.1 29 9.7 49.4 0
10:59 1018 30.06 847 25.01 29 84.2 33 11.3 52.4 0
11:00 1018 30.06 847 25.01 28.9 84.1 34 11.6 52.9 0
11:01 1018 30.06 847 25.01 28.8 83.8 30 9.7 49.4 0
11:02 1018 30.06 847 25.01 28.7 83.6 30 9.7 49.4 0
11:03 1018 30.06 847 25.01 28.6 83.5 30 9.6 49.3 0
11:04 1018 30.06 847 25.01 28.7 83.6 30 9.9 49.8 0
11:05 1018 30.06 847 25.01 28.6 83.5 37 12.7 54.8 0
11:06 1018 30.06 847 25.01 28.4 83.2 30 9.7 49.4 0
11:07 1018 30.06 847 25.01 28.2 82.8 36 11.8 53.3 0
11:08 1018 30.06 847 25.01 28.1 82.6 39 13 55.4 0
11:09 1018 30.06 847 25.01 28.1 82.6 29 8.6 47.5 0
11:10 1018 30.06 847 25.01 28.1 82.5 38 12.5 54.6 0
11:11 1018 30.06 847 25.01 28 82.4 37 12.1 53.8 0
11:12 1018 30.06 847 25.01 27.9 82.3 36 11.8 53.2 0
11:13 1018 30.06 847 25.01 27.9 82.3 35 11.3 52.3 0
11:14 1018 30.06 847 25.01 27.9 82.2 34 11 51.8 0
11:15 1018 30.06 847 25.01 28 82.3 35 11.4 52.5 0
11:16 1018 30.06 847 25.01 27.9 82.3 33 10.2 50.4 0
11:17 1018 30.06 847 25.01 27.8 82.1 41 13.6 56.5 0
11:18 1018 30.06 847 25.01 27.7 81.8 31 9.3 48.8 0
11:19 1018 30.06 847 25.01 27.6 81.7 38 12.2 53.9 0
11:20 1018 30.06 847 25.01 27.5 81.6 39 12.5 54.5 0
11:21 1018 30.06 847 25.01 27.6 81.6 45 14.9 58.9 0
11:22 1018 30.06 847 25.01 27.5 81.4 38 12.3 54.1 0
11:23 1018 30.06 847 25.01 27.4 81.4 44 14.3 57.8 0
11:24 1018 30.06 847 25.01 27.4 81.4 41 13.2 55.7 0
11:25 1018 30.06 847 25.01 27.5 81.5 33 10.2 50.4 0
11:26 1018 30.06 847 25.01 27.5 81.6 32 9.9 49.8 0
11:27 1018 30.06 847 25.01 27.7 81.8 37 12.1 53.8 0
11:28 1018 30.06 847 25.01 27.8 82.1 35 11.2 52.1 0
11:29 1018 30.06 847 25.01 28 82.4 34 11 51.9 0
11:30 1018 30.06 847 25.01 28.1 82.5 39 13 55.4 0
11:31 1018 30.06 847 25.01 28.1 82.6 37 12.4 54.3 0
11:32 1018 30.06 847 25.01 28.1 82.6 41 13.8 56.9 0
11:33 1018 30.06 847 25.01 28.1 82.5 34 10.9 51.7 0
11:34 1018 30.06 847 25.01 28 82.4 34 11 51.8 0
11:35 1018 30.06 847 25.01 28 82.4 38 12.6 54.7 0
11:36 1018 30.06 847 25.01 28 82.4 38 12.6 54.7 0
11:37 1018 30.06 847 25.01 27.9 82.3 33 10.4 50.8 0
11:38 1018 30.06 847 25.01 27.9 82.2 30 9.1 48.4 0
11:39 1018 30.06 847 25.01 28 82.4 38 12.5 54.6 0
11:40 1018 30.06 847 25.01 28 82.4 32 10.2 50.4 0
11:41 1018 30.06 847 25.01 28.1 82.5 33 10.4 50.8 0
11:42 1018 30.06 847 25.01 28.1 82.5 35 11.4 52.4 0
11:43 1018 30.06 847 25.01 28 82.5 31 9.5 49.2 0
11:44 1018 30.06 847 25.01 28.1 82.5 39 13.2 55.8 0
11:45 1018 30.06 847 25.01 28.1 82.5 33 10.6 51.1 0
11:46 1018 30.06 847 25.01 28.1 82.6 37 12.4 54.3 0
11:47 1018 30.06 847 25.01 28.2 82.7 31 9.6 49.3 0
11:48 1018 30.06 847 25.01 28.2 82.8 35 11.4 52.6 0
11:49 1018 30.06 847 25.01 28.2 82.8 36 12.1 53.8 0
11:50 1018 30.06 847 25.01 28.2 82.8 33 10.5 51 0
11:51 1018 30.06 847 25.01 28.2 82.7 33 10.7 51.3 0
11:52 1018 30.06 847 25.01 28.2 82.7 31 9.7 49.5 0
11:53 1018 30.06 847 25.01 28.2 82.7 31 9.7 49.4 0
11:54 1018 30.06 847 25.01 28.2 82.7 37 12.3 54.1 0
11:55 1018 30.06 847 25.01 28.2 82.8 30 9.4 49 0
11:56 1018 30.06 847 25.01 28.3 82.9 28 8.2 46.7 0
11:57 1018 30.06 847 25.01 28.3 83 35 11.8 53.2 0
11:58 1018 30.06 847 25.01 28.3 82.9 34 11.1 51.9 0
11:59 1018 30.06 847 25.01 28.3 82.9 34 11.4 52.5 0
12:00 1018 30.06 847 25.01 28.2 82.7 30 9.5 49.1 0
12:01 1018 30.06 847 25.01 28.1 82.6 34 10.9 51.7 0
12:02 1018 30.06 847 25.01 28.1 82.6 34 11.1 52 0
12:03 1018 30.06 847 25.01 28 82.4 27 7.8 46 0
12:04 1018 30.06 847 25.01 28 82.4 31 9.8 49.6 0
12:05 1018 30.06 847 25.01 28.2 82.7 40 13.6 56.5 0
12:06 1018 30.06 847 25.01 28.2 82.7 29 8.6 47.4 0
12:07 1018 30.06 847 25.01 28.1 82.7 31 9.6 49.3 0
12:08 1018 30.06 847 25.01 28.1 82.6 27 7.5 45.5 0
12:09 1018 30.06 847 25.01 28.2 82.7 31 9.5 49.1 0
12:10 1018 30.06 847 25.01 28.2 82.8 39 13.1 55.5 0
12:11 1018 30.06 847 25.01 28.2 82.7 32 10.1 50.2 0
12:12 1018 30.06 847 25.01 28.2 82.7 33 10.8 51.5 0
12:13 1018 30.06 847 25.01 28.2 82.7 33 10.8 51.4 0
12:14 1018 30.06 847 25.01 28.3 82.9 36 12.1 53.9 0
12:15 1018 30.06 847 25.01 28.3 82.9 35 11.5 52.7 0
12:16 1018 30.06 847 25.01 28.2 82.8 30 9.3 48.8 0
12:17 1018 30.06 847 25.01 28.2 82.7 27 7.6 45.7 0
12:18 1018 30.06 847 25.01 28.1 82.6 32 10 50.1 0
12:19 1018 30.06 847 25.01 28.1 82.7 29 8.5 47.3 0
12:20 1018 30.06 847 25.01 28.1 82.6 37 12.5 54.5 0
12:21 1018 30.06 847 25.01 28.1 82.5 30 9.1 48.3 0
12:22 1018 30.06 847 25.01 28 82.3 29 8.4 47.1 0
12:23 1018 30.06 847 25.01 28 82.3 36 11.8 53.2 0
12:24 1018 30.06 847 25.01 28.1 82.6 36 12.1 53.7 0
12:25 1018 30.06 847 25.01 28.3 82.9 32 10.2 50.3 0
12:26 1018 30.06 847 25.01 28.4 83.2 31 10.1 50.2 0
12:27 1018 30.06 847 25.01 28.6 83.4 33 11.1 52 0
12:28 1018 30.06 847 25.01 28.6 83.5 34 11.5 52.6 0
12:29 1018 30.06 847 25.01 28.7 83.7 28 8.8 47.8 0
12:30 1018 30.06 847 25.01 28.8 83.8 34 11.5 52.7 0
12:31 1018 30.06 847 25.01 29 84.2 38 13.4 56.1 0
12:32 1018 30.06 847 25.01 29.1 84.4 31 10.6 51.1 0
12:33 1018 30.06 847 25.01 29.1 84.3 31 10.3 50.6 0
12:34 1018 30.06 847 25.01 28.9 84.1 34 11.7 53 0
12:35 1018 30.06 847 25.01 28.7 83.7 34 11.8 53.2 0
12:36 1018 30.06 847 25.01 28.6 83.4 35 12 53.6 0
12:37 1018 30.06 847 25.01 28.3 83 30 9.3 48.7 0
12:38 1018 30.06 847 25.01 28.2 82.7 33 10.8 51.4 0
12:39 1018 30.06 847 25.01 28 82.5 34 11.2 52.2 0
12:40 1018 30.06 847 25.01 28 82.5 39 13 55.3 0
12:41 1018 30.06 847 25.01 28 82.5 37 12.3 54.2 0
12:42 1018 30.06 847 25.01 28 82.5 35 11.4 52.5 0
12:43 1018 30.06 847 25.01 28 82.4 37 12.2 53.9 0
12:44 1018 30.06 847 25.01 27.9 82.1 41 13.6 56.6 0
12:45 1018 30.06 847 25.01 27.7 81.9 41 13.5 56.2 0
12:46 1018 30.06 847 25.01 27.7 81.8 42 14 57.1 0
12:47 1018 30.06 847 25.01 27.8 82 33 10.4 50.8 0
12:48 1018 30.06 847 25.01 27.9 82.2 32 10 50 0
12:49 1018 30.06 847 25.01 27.9 82.3 32 10.1 50.1 0
12:50 1018 30.06 847 25.01 27.8 82 32 9.8 49.7 0
12:51 1018 30.06 847 25.01 27.5 81.5 33 10 50.1 0
12:52 1018 30.06 847 25.01 27.3 81.1 33 9.8 49.6 0
12:53 1018 30.06 847 25.01 27.1 80.8 36 11.2 52.1 0
12:54 1018 30.06 847 25.01 27 80.6 38 11.8 53.2 0
12:55 1018 30.06 847 25.01 27 80.5 37 11.5 52.7 0
12:56 1018 30.06 847 25.01 26.9 80.3 39 11.9 53.5 0
12:57 1018 30.06 847 25.01 26.8 80.2 37 11 51.8 0
12:58 1018 30.06 847 25.01 26.7 80.1 36 10.6 51 0
12:59 1018 30.06 847 25.01 26.8 80.2 34 9.8 49.7 0
13:00 1018 30.06 847 25.01 27 80.6 34 10 50 0
13:01 1018 30.06 847 25.01 27.3 81.1 39 12.3 54.2 0
13:02 1018 30.06 847 25.01 27.4 81.4 33 10 50 0
13:03 1018 30.06 847 25.01 27.5 81.4 38 12 53.7 0
13:04 1018 30.06 847 25.01 27.4 81.3 34 10.5 50.9 0
13:05 1018 30.06 847 25.01 27.4 81.3 36 11.2 52.2 0
13:06 1018 30.06 847 25.01 27.4 81.3 33 10 50 0
13:07 1018 30.06 847 25.01 27.4 81.4 35 11.1 51.9 0
13:08 1018 30.06 847 25.01 27.4 81.4 34 10.3 50.5 0
13:09 1018 30.06 847 25.01 27.5 81.4 35 11.1 52 0
13:10 1018 30.06 847 25.01 27.5 81.5 37 11.7 53.1 0
13:11 1018 30.06 847 25.01 27.5 81.4 34 10.3 50.6 0
13:12 1018 30.06 847 25.01 27.4 81.3 34 10.5 50.9 0
13:13 1018 30.06 847 25.01 27.4 81.3 36 11.4 52.6 0
13:14 1018 30.06 847 25.01 27.3 81.1 35 10.6 51.1 0
13:15 1018 30.06 847 25.01 27.2 81 39 12.2 53.9 0
13:16 1018 30.06 847 25.01 27.2 80.9 37 11.7 53 0
13:17 1018 30.06 847 25.01 27.2 81 37 11.4 52.6 0
13:18 1018 30.06 847 25.01 27.2 80.9 37 11.3 52.4 0
13:19 1018 30.06 847 25.01 27.2 81 37 11.7 53 0
13:20 1018 30.06 847 25.01 27.2 81 33 10 49.9 0
13:21 1018 30.06 847 25.01 27.2 80.9 35 10.7 51.3 0
13:22 1018 30.06 847 25.01 27.2 80.9 33 9.9 49.9 0
13:23 1018 30.06 847 25.01 27.1 80.8 35 10.7 51.2 0
13:24 1018 30.06 847 25.01 27.1 80.8 38 11.9 53.3 0
13:25 1018 30.06 847 25.01 27.1 80.8 38 11.7 53 0
13:26 1018 30.06 847 25.01 27 80.7 36 11.1 51.9 0
13:27 1018 30.06 847 25.01 27 80.5 37 11.3 52.3 0
13:28 1018 30.06 847 25.01 26.9 80.4 36 11 51.8 0
13:29 1018 30.06 847 25.01 26.8 80.3 36 10.9 51.6 0
13:30 1018 30.06 847 25.01 26.8 80.2 39 11.9 53.4 0
13:31 1018 30.06 847 25.01 26.7 80 38 11.3 52.4 0
13:32 1018 30.06 847 25.01 26.6 79.9 35 10.2 50.3 0
13:33 1018 30.06 847 25.01 26.6 79.8 33 9.4 48.9 0
13:34 1018 30.06 847 25.01 26.5 79.7 33 9.4 48.9 0
13:35 1018 30.06 847 25.01 26.5 79.6 35 10.1 50.2 0
13:36 1018 30.06 847 25.01 26.4 79.5 36 10.3 50.5 0
13:37 1018 30.06 847 25.01 26.3 79.3 38 10.9 51.6 0
13:38 1018 30.06 847 25.01 26.2 79.1 37 10.6 51.1 0
13:39 1018 30.06 847 25.01 26.1 78.9 39 11.3 52.3 0
13:40 1018 30.06 847 25.01 26 78.8 40 11.6 52.9 0
13:41 1018 30.06 847 25.01 25.9 78.7 42 12.2 53.9 0
13:42 1018 30.06 847 25.01 25.9 78.7 40 11.6 52.8 0
13:43 1018 30.06 847 25.01 25.9 78.6 42 12.1 53.8 0
13:44 1018 30.06 847 25.01 25.8 78.4 40 11.2 52.2 0
13:45 1018 30.06 847 25.01 25.6 78.1 40 11.3 52.3 0
13:46 1018 30.06 847 25.01 25.5 78 41 11.4 52.6 0
13:47 1018 30.06 848 25.04 25.5 77.8 41 11.4 52.5 0
13:48 1018 30.06 848 25.04 25.3 77.6 39 10.4 50.8 0
13:49 1018 30.06 848 25.04 25.2 77.4 39 10.5 51 0
13:50 1018 30.06 848 25.04 25.1 77.2 40 10.7 51.3 0
13:51 1018 30.06 848 25.04 25.1 77.2 41 11 51.9 0
13:52 1018 30.06 848 25.04 25 76.9 42 11.3 52.4 0
13:53 1019 30.09 848 25.04 24.9 76.7 41 10.8 51.4 0
13:54 1019 30.09 848 25.04 24.7 76.5 42 11.3 52.4 0
13:55 1019 30.09 848 25.04 24.7 76.4 42 11 51.8 0
13:56 1019 30.09 848 25.04 24.7 76.4 42 11 51.8 0
13:57 1019 30.09 848 25.04 24.6 76.3 42 11 51.9 0
13:58 1019 30.09 848 25.04 24.5 76.1 42 10.8 51.5 0
13:59 1019 30.09 848 25.04 24.5 76 42 10.8 51.4 0
14:00 1019 30.09 848 25.04 24.4 75.9 41 10.3 50.6 0
14:01 1019 30.09 848 25.04 24.4 75.8 41 10.6 51.2 0
14:02 1019 30.09 848 25.04 24.4 75.8 41 10.6 51.1 0
14:03 1019 30.09 848 25.04 24.3 75.7 41 10.5 50.9 0
14:04 1019 30.09 848 25.04 24.2 75.6 43 10.9 51.6 0
14:05 1019 30.09 848 25.04 24.1 75.4 44 11.3 52.3 0
14:06 1019 30.09 848 25.04 24 75.1 48 12.5 54.4 0
14:07 1019 30.09 848 25.04 23.7 74.6 49 12.5 54.5 0
14:08 1019 30.09 848 25.04 23.3 73.9 52 13 55.4 0
14:09 1019 30.09 848 25.04 22.9 73.2 53 13 55.5 0
14:10 1019 30.09 848 25.04 22.6 72.6 56 13.6 56.4 0
14:11 1019 30.09 848 25.04 22.1 71.8 58 13.6 56.5 0
14:12 1019 30.09 848 25.04 21.8 71.3 58 13.2 55.8 0
14:13 1019 30.09 848 25.04 21.7 71 61 14 57.1 0
14:14 1019 30.09 848 25.04 21.5 70.8 63 14.2 57.6 0
14:15 1019 30.09 848 25.04 21.3 70.4 63 14.1 57.5 0
14:16 1019 30.09 848 25.04 21.2 70.2 63 14.1 57.4 0
14:17 1019 30.09 848 25.04 21.2 70.1 63 13.9 57 0
14:18 1019 30.09 849 25.07 21.3 70.3 61 13.5 56.4 0
14:19 1019 30.09 849 25.07 21.4 70.5 59 13.2 55.8 0
14:20 1019 30.09 849 25.07 21.5 70.7 58 13 55.5 0
14:21 1020 30.12 849 25.07 21.5 70.8 61 13.9 57.1 0
14:22 1020 30.12 849 25.07 21.5 70.7 58 13.1 55.6 0
14:23 1020 30.12 849 25.07 21.6 70.9 60 13.5 56.4 0
14:24 1020 30.12 849 25.07 21.7 71 56 12.6 54.6 0
14:25 1020 30.12 849 25.07 21.8 71.3 57 13.1 55.5 0
14:26 1020 30.12 849 25.07 21.9 71.4 56 12.9 55.3 0
14:27 1020 30.12 849 25.07 21.9 71.4 58 13.3 55.9 0
14:28 1020 30.12 849 25.07 21.8 71.2 59 13.5 56.2 0
14:29 1020 30.12 849 25.07 21.6 70.9 59 13.4 56.2 0
14:30 1020 30.12 849 25.07 21.6 70.8 55 12.3 54.2 0
14:31 1020 30.12 849 25.07 21.6 70.9 55 12.4 54.4 0
14:32 1020 30.12 849 25.07 21.6 70.8 55 12.3 54.1 0
14:33 1020 30.12 849 25.07 21.6 70.8 60 13.6 56.4 0
14:34 1020 30.12 849 25.07 21.4 70.5 59 13.1 55.6 0
14:35 1020 30.12 849 25.07 21.3 70.3 60 13.3 55.9 0
14:36 1020 30.12 849 25.07 21.2 70.1 62 13.6 56.6 0
14:37 1020 30.12 849 25.07 21 69.8 62 13.5 56.3 0
14:38 1020 30.12 849 25.07 20.8 69.5 66 14.3 57.7 0
14:39 1020 30.12 849 25.07 20.7 69.2 69 14.8 58.7 0
14:40 1020 30.12 849 25.07 20.5 68.8 66 13.9 57.1 0
14:41 1020 30.12 849 25.07 20.4 68.7 69 14.6 58.3 0
14:42 1020 30.12 849 25.07 20.2 68.4 70 14.6 58.3 0
14:43 1020 30.12 849 25.07 20.2 68.3 70 14.6 58.2 0
14:44 1020 30.12 849 25.07 20.1 68.2 71 14.8 58.6 0
14:45 1020 30.12 849 25.07 20.1 68.2 71 14.7 58.4 0
14:46 1020 30.12 849 25.07 20.1 68.2 71 14.7 58.5 0
14:47 1020 30.12 849 25.07 20.1 68.2 71 14.8 58.6 0
14:48 1020 30.12 850 25.1 20.2 68.3 72 15 59 0
14:49 1020 30.12 850 25.1 20.2 68.4 70 14.7 58.5 0
14:50 1020 30.12 850 25.1 20.3 68.6 70 14.8 58.7 0
14:51 1020 30.12 850 25.1 20.4 68.8 72 15.3 59.5 0
14:52 1020 30.12 850 25.1 20.6 69 72 15.3 59.6 0
14:53 1020 30.12 850 25.1 20.7 69.3 70 15.2 59.3 0
14:54 1020 30.12 850 25.1 20.8 69.5 73 15.8 60.4 0
14:55 1020 30.12 850 25.1 21 69.7 72 15.8 60.4 0
14:56 1020 30.12 850 25.1 21 69.9 70 15.4 59.7 0
14:57 1020 30.12 850 25.1 21.2 70.1 72 15.9 60.6 0
14:58 1020 30.12 850 25.1 21.2 70.2 74 16.4 61.5 0
14:59 1020 30.12 850 25.1 21.4 70.4 69 15.5 59.9 0
15:00 1020 30.12 850 25.1 21.5 70.6 73 16.4 61.6 0
15:01 1020 30.12 850 25.1 21.6 70.8 69 15.7 60.2 0
15:02 1020 30.12 850 25.1 21.6 70.9 69 15.8 60.4 0
15:03 1020 30.12 850 25.1 21.8 71.2 68 15.8 60.4 0
15:04 1020 30.12 850 25.1 21.9 71.4 67 15.7 60.3 0
15:05 1020 30.12 849 25.07 22 71.5 62 14.4 57.9 0
15:06 1020 30.12 849 25.07 21.9 71.5 65 15.2 59.3 0
15:07 1020 30.12 849 25.07 21.9 71.5 65 15.1 59.1 0
15:08 1020 30.12 849 25.07 21.9 71.4 64 14.9 58.9 0
15:09 1020 30.12 849 25.07 21.9 71.3 66 15.3 59.5 0
15:10 1020 30.12 849 25.07 21.8 71.3 64 14.7 58.5 0
15:11 1020 30.12 849 25.07 21.8 71.3 61 14.1 57.4 0
15:12 1020 30.12 849 25.07 21.8 71.3 60 13.9 56.9 0
15:13 1020 30.12 849 25.07 21.8 71.2 57 13.1 55.5 0
15:14 1020 30.12 849 25.07 21.8 71.2 64 14.7 58.5 0
15:15 1020 30.12 849 25.07 21.7 71.1 62 14.2 57.6 0
15:16 1020 30.12 849 25.07 21.7 71 58 13.3 55.9 0
15:17 1020 30.12 849 25.07 21.7 71 60 13.7 56.7 0
15:18 1020 30.12 849 25.07 21.7 71 61 14 57.2 0
15:19 1020 30.12 849 25.07 21.6 70.9 60 13.6 56.4 0
15:20 1020 30.12 849 25.07 21.6 70.8 60 13.6 56.5 0
15:21 1020 30.12 849 25.07 21.5 70.7 60 13.6 56.5 0
15:22 1020 30.12 849 25.07 21.5 70.7 61 13.8 56.8 0
15:23 1020 30.12 849 25.07 21.5 70.6 63 14.3 57.7 0
15:24 1020 30.12 849 25.07 21.4 70.5 62 13.9 57.1 0
15:25 1020 30.12 850 25.1 21.3 70.4 62 13.9 57 0
15:26 1020 30.12 850 25.1 21.3 70.3 63 14 57.3 0
15:27 1020 30.12 850 25.1 21.3 70.3 64 14.3 57.7 0
15:28 1020 30.12 850 25.1 21.3 70.3 65 14.5 58.1 0
15:29 1020 30.12 850 25.1 21.3 70.3 65 14.6 58.3 0
15:30 1021 30.15 850 25.1 21.3 70.3 58 12.9 55.2 0
15:31 1021 30.15 850 25.1 21.4 70.5 60 13.4 56.2 0
15:32 1021 30.15 850 25.1 21.5 70.6 60 13.6 56.5 0
15:33 1021 30.15 850 25.1 21.5 70.6 63 14.2 57.5 0
15:34 1021 30.15 850 25.1 21.4 70.4 64 14.3 57.7 0
15:35 1021 30.15 850 25.1 21.3 70.3 65 14.5 58.1 0
15:36 1021 30.15 850 25.1 21.3 70.3 65 14.5 58 0
15:37 1021 30.15 850 25.1 21.3 70.3 65 14.6 58.3 0
15:38 1021 30.15 850 25.1 21.3 70.4 64 14.4 58 0
15:39 1021 30.15 850 25.1 21.4 70.6 67 15.1 59.2 0
15:40 1021 30.15 850 25.1 21.5 70.6 68 15.3 59.5 0
15:41 1021 30.15 850 25.1 21.5 70.7 68 15.5 59.8 0
15:42 1020 30.12 850 25.1 21.6 70.8 63 14.4 58 0
15:43 1021 30.15 850 25.1 21.6 70.9 63 14.4 57.9 0
15:44 1020 30.12 850 25.1 21.6 70.9 63 14.4 57.9 0
15:45 1020 30.12 850 25.1 21.6 70.9 63 14.4 57.9 0
15:46 1020 30.12 850 25.1 21.7 71 61 14 57.3 0
15:47 1020 30.12 850 25.1 21.7 71 64 14.8 58.6 0
15:48 1021 30.15 850 25.1 21.7 71 61 13.9 56.9 0
15:49 1021 30.15 850 25.1 21.7 71 63 14.4 57.9 0
15:50 1021 30.15 850 25.1 21.7 71 63 14.5 58.2 0
15:51 1020 30.12 850 25.1 21.7 71 62 14.3 57.7 0
15:52 1020 30.12 850 25.1 21.7 71.1 64 14.7 58.5 0
15:53 1020 30.12 850 25.1 21.8 71.2 63 14.6 58.2 0
15:54 1020 30.12 850 25.1 21.8 71.3 61 14 57.2 0
15:55 1020 30.12 850 25.1 21.9 71.5 67 15.6 60.2 0
15:56 1020 30.12 850 25.1 22 71.6 57 13.3 56 0
15:57 1020 30.12 850 25.1 22.1 71.7 63 14.8 58.6 0
15:58 1021 30.15 850 25.1 22.2 72 62 14.8 58.7 0
15:59 1021 30.15 850 25.1 22.3 72.1 59 14 57.3 0
16:00 1021 30.15 850 25.1 22.4 72.3 57 13.6 56.5 0
16:01 1021 30.15 850 25.1 22.5 72.4 62 15 59 0
16:02 1021 30.15 850 25.1 22.6 72.6 61 14.9 58.8 0
16:03 1021 30.15 850 25.1 22.7 72.8 60 14.7 58.4 0
16:04 1021 30.15 850 25.1 22.8 73 59 14.5 58.1 0
16:05 1021 30.15 850 25.1 22.9 73.2 61 15.1 59.2 0
16:06 1021 30.15 850 25.1 23.1 73.5 61 15.3 59.5 0
16:07 1021 30.15 850 25.1 23.2 73.7 57 14.2 57.5 0
16:08 1021 30.15 850 25.1 23 73.5 56 13.8 56.9 0
16:09 1021 30.15 850 25.1 23 73.4 55 13.5 56.3 0
16:10 1021 30.15 850 25.1 23 73.4 55 13.7 56.6 0
16:11 1021 30.15 850 25.1 23.1 73.6 54 13.5 56.2 0
16:12 1021 30.15 850 25.1 23.4 74 60 15.2 59.4 0
16:13 1021 30.15 850 25.1 23.6 74.6 51 13.1 55.6 0
16:14 1021 30.15 850 25.1 23.9 75 49 12.7 54.8 0
16:15 1021 30.15 850 25.1 24.1 75.3 48 12.7 54.8 0
16:16 1021 30.15 850 25.1 24.2 75.6 47 12.5 54.5 0
16:17 1021 30.15 850 25.1 24.2 75.6 51 13.5 56.4 0
16:18 1021 30.15 850 25.1 24.5 76 45 12 53.6 0
16:19 1021 30.15 850 25.1 24.7 76.4 43 11.6 52.8 0
16:20 1021 30.15 850 25.1 24.6 76.3 48 13.2 55.8 0
16:21 1021 30.15 850 25.1 24.5 76.1 48 12.9 55.2 0
16:22 1021 30.15 850 25.1 24.5 76 47 12.5 54.5 0
16:23 1021 30.15 850 25.1 24.5 76.1 48 12.9 55.2 0
16:24 1021 30.15 850 25.1 24.4 75.9 49 13 55.5 0
16:25 1021 30.15 850 25.1 24.3 75.8 45 12 53.5 0
16:26 1020 30.12 850 25.1 24.4 75.9 50 13.5 56.3 0
16:27 1020 30.12 850 25.1 24.4 76 48 12.8 55 0
16:28 1020 30.12 850 25.1 24.5 76 48 12.9 55.2 0
16:29 1020 30.12 850 25.1 24.6 76.2 48 12.9 55.3 0
16:30 1020 30.12 850 25.1 24.5 76.2 48 13 55.4 0
16:31 1020 30.12 850 25.1 24.5 76 46 12.2 54 0
16:32 1020 30.12 850 25.1 24.2 75.6 49 13 55.4 0
16:33 1020 30.12 850 25.1 24.1 75.3 47 12.3 54.1 0
16:34 1020 30.12 850 25.1 24 75.1 50 13 55.4 0
16:35 1020 30.12 850 25.1 23.9 75 52 13.6 56.4 0
16:36 1020 30.12 850 25.1 23.7 74.7 50 12.8 55 0
16:37 1020 30.12 849 25.07 23.7 74.6 54 13.9 57 0
16:38 1020 30.12 849 25.07 23.8 74.8 49 12.5 54.6 0
16:39 1020 30.12 849 25.07 23.9 75 51 13.4 56 0
16:40 1020 30.12 849 25.07 23.9 75.1 50 13.1 55.6 0
16:41 1020 30.12 849 25.07 24 75.1 49 12.7 54.9 0
16:42 1020 30.12 849 25.07 24 75.2 54 14.4 57.9 0
16:43 1020 30.12 849 25.07 24.1 75.3 50 13.2 55.7 0
16:44 1020 30.12 849 25.07 24.1 75.4 52 13.7 56.7 0
16:45 1020 30.12 849 25.07 24.3 75.7 52 14 57.1 0
16:46 1020 30.12 849 25.07 24.5 76.1 55 14.9 58.9 0
16:47 1020 30.12 849 25.07 24.7 76.4 47 12.8 55 0
16:48 1020 30.12 850 25.1 24.6 76.3 47 12.7 54.9 0
16:49 1020 30.12 850 25.1 24.5 76.2 50 13.6 56.5 0
16:50 1020 30.12 850 25.1 24.5 76.1 50 13.5 56.4 0
16:51 1020 30.12 850 25.1 24.5 76 48 12.9 55.2 0
16:52 1020 30.12 850 25.1 24.4 76 51 13.8 56.8 0
16:53 1020 30.12 850 25.1 24.4 75.9 55 14.8 58.7 0
16:54 1020 30.12 850 25.1 24.5 76 57 15.5 60 0
16:55 1020 30.12 850 25.1 24.5 76.1 49 13.4 56.1 0
16:56 1020 30.12 850 25.1 24.4 75.9 55 14.8 58.7 0
16:57 1020 30.12 849 25.07 24.5 76 52 14.2 57.6 0
16:58 1020 30.12 849 25.07 24.6 76.3 46 12.4 54.4 0
16:59 1020 30.12 849 25.07 24.7 76.4 52 14.3 57.8 0
17:00 1020 30.12 849 25.07 24.7 76.4 51 14 57.2 0
17:01 1020 30.12 849 25.07 24.8 76.6 49 13.4 56.1 0
17:02 1020 30.12 849 25.07 24.6 76.3 49 13.5 56.3 0
17:03 1020 30.12 849 25.07 24.5 76.1 49 13.3 55.9 0
17:04 1020 30.12 849 25.07 24.4 75.8 52 14 57.3 0
17:05 1020 30.12 849 25.07 24.4 76 52 14.2 57.6 0
17:06 1020 30.12 849 25.07 24.6 76.3 50 13.7 56.6 0
17:07 1020 30.12 849 25.07 24.7 76.5 47 12.9 55.1 0
17:08 1020 30.12 849 25.07 24.7 76.4 49 13.6 56.4 0
17:09 1020 30.12 849 25.07 24.6 76.3 46 12.6 54.6 0
17:10 1020 30.12 849 25.07 24.6 76.3 46 12.5 54.6 0
17:11 1020 30.12 849 25.07 24.7 76.5 48 13.1 55.5 0
17:12 1020 30.12 849 25.07 24.7 76.4 54 15 59 0
17:13 1020 30.12 849 25.07 24.6 76.4 52 14.3 57.7 0
17:14 1020 30.12 849 25.07 24.7 76.4 49 13.4 56.2 0
17:15 1020 30.12 849 25.07 24.6 76.3 51 14 57.2 0
17:16 1020 30.12 849 25.07 24.5 76.1 50 13.5 56.4 0
17:17 1020 30.12 849 25.07 24.4 76 46 12.1 53.8 0
17:18 1020 30.12 849 25.07 24.4 75.8 50 13.5 56.4 0
17:19 1020 30.12 849 25.07 24.4 76 49 13.2 55.8 0
17:20 1020 30.12 849 25.07 24.4 76 50 13.4 56.1 0
17:21 1020 30.12 849 25.07 24.4 75.9 51 13.9 56.9 0
17:22 1020 30.12 849 25.07 24.3 75.8 50 13.5 56.3 0
17:23 1020 30.12 849 25.07 24.2 75.5 49 12.9 55.2 0
17:24 1020 30.12 849 25.07 24 75.2 52 13.6 56.6 0
17:25 1020 30.12 849 25.07 24 75.1 54 14.2 57.5 0
17:26 1020 30.12 849 25.07 24.1 75.3 49 12.7 54.9 0
17:27 1020 30.12 849 25.07 24.1 75.4 48 12.5 54.5 0
17:28 1020 30.12 849 25.07 24.2 75.6 48 12.8 55.1 0
17:29 1020 30.12 849 25.07 24.4 75.9 45 12 53.6 0
17:30 1020 30.12 849 25.07 24.5 76.2 52 14.2 57.6 0
17:31 1020 30.12 849 25.07 24.6 76.3 50 13.8 56.8 0
17:32 1020 30.12 849 25.07 24.6 76.4 48 12.9 55.3 0
17:33 1020 30.12 849 25.07 24.6 76.3 47 12.8 55 0
17:34 1020 30.12 849 25.07 24.6 76.3 49 13.3 56 0
17:35 1020 30.12 849 25.07 24.7 76.5 52 14.4 57.9 0
17:36 1020 30.12 849 25.07 24.7 76.4 49 13.4 56.1 0
17:37 1020 30.12 849 25.07 24.7 76.4 54 15 59 0
17:38 1020 30.12 849 25.07 24.8 76.6 51 14.2 57.5 0
17:39 1020 30.12 849 25.07 24.9 76.8 47 12.9 55.1 0
17:40 1020 30.12 849 25.07 25.1 77.1 46 12.8 55 0
17:41 1020 30.12 849 25.07 25.1 77.1 45 12.5 54.5 0
17:42 1020 30.12 849 25.07 25 76.9 46 12.6 54.7 0
17:43 1020 30.12 849 25.07 25 77 44 12 53.5 0
17:44 1020 30.12 849 25.07 25 77 43 11.8 53.3 0
17:45 1020 30.12 849 25.07 24.9 76.9 45 12.3 54.1 0
17:46 1020 30.12 849 25.07 24.8 76.6 49 13.5 56.2 0
17:47 1020 30.12 849 25.07 24.7 76.4 46 12.5 54.6 0
17:48 1020 30.12 849 25.07 24.6 76.3 51 14 57.3 0
17:49 1020 30.12 849 25.07 24.5 76.2 51 13.8 56.9 0
17:50 1020 30.12 849 25.07 24.5 76 49 13.2 55.7 0
17:51 1020 30.12 849 25.07 24.4 75.9 49 13.1 55.6 0
17:52 1020 30.12 849 25.07 24.4 75.9 49 13.3 55.9 0
17:53 1020 30.12 849 25.07 24.5 76 50 13.6 56.5 0
17:54 1020 30.12 849 25.07 24.5 76 52 14.1 57.5 0
17:55 1020 30.12 849 25.07 24.4 75.9 48 12.8 55.1 0
17:56 1020 30.12 849 25.07 24.3 75.7 48 12.9 55.2 0
17:57 1020 30.12 849 25.07 24.2 75.6 46 12 53.7 0
17:58 1020 30.12 849 25.07 24.2 75.5 49 12.9 55.2 0
17:59 1020 30.12 849 25.07 24.2 75.5 49 13 55.3 0
18:00 1020 30.12 849 25.07 24.2 75.6 48 12.9 55.1 0
18:01 1020 30.12 849 25.07 24.3 75.7 44 11.3 52.4 0
18:02 1020 30.12 849 25.07 24.2 75.6 48 12.6 54.6 0
18:03 1020 30.12 849 25.07 24.1 75.4 44 11.5 52.6 0
18:04 1020 30.12 849 25.07 24.1 75.3 48 12.4 54.4 0
18:05 1020 30.12 849 25.07 24 75.1 48 12.5 54.5 0
18:06 1020 30.12 849 25.07 23.8 74.9 49 12.8 55 0
18:07 1019 30.09 849 25.07 23.7 74.7 49 12.4 54.3 0
18:08 1019 30.09 849 25.07 23.7 74.6 49 12.4 54.3 0
18:09 1019 30.09 849 25.07 23.6 74.5 49 12.5 54.5 0
18:10 1019 30.09 849 25.07 23.6 74.5 48 12.1 53.7 0
18:11 1019 30.09 849 25.07 23.5 74.4 48 12.1 53.8 0
18:12 1019 30.09 849 25.07 23.5 74.3 51 12.9 55.3 0
18:13 1019 30.09 849 25.07 23.5 74.2 48 12 53.5 0
18:14 1019 30.09 849 25.07 23.5 74.3 51 12.9 55.2 0
18:15 1019 30.09 849 25.07 23.5 74.2 51 13 55.4 0
18:16 1019 30.09 848 25.04 23.5 74.2 51 12.9 55.2 0
18:17 1019 30.09 848 25.04 23.4 74.1 52 13.2 55.8 0
18:18 1019 30.09 848 25.04 23.3 74 50 12.6 54.6 0
18:19 1019 30.09 848 25.04 23.3 73.9 50 12.5 54.4 0
18:20 1019 30.09 848 25.04 23.2 73.8 50 12.4 54.3 0
18:21 1019 30.09 848 25.04 23.3 73.9 50 12.3 54.1 0
18:22 1019 30.09 848 25.04 23.3 73.9 49 12.2 54 0
18:23 1019 30.09 848 25.04 23.3 73.9 51 12.7 54.8 0
18:24 1019 30.09 849 25.07 23.3 73.9 53 13.2 55.8 0
18:25 1019 30.09 849 25.07 23.3 73.9 53 13.4 56.2 0
18:26 1019 30.09 849 25.07 23.2 73.7 56 14.1 57.3 0
18:27 1019 30.09 849 25.07 23.1 73.6 56 13.9 57 0
18:28 1019 30.09 849 25.07 23.1 73.5 53 13 55.5 0
18:29 1019 30.09 849 25.07 23 73.4 53 13.2 55.8 0
18:30 1019 30.09 849 25.07 23 73.5 54 13.3 56 0
18:31 1019 30.09 849 25.07 23 73.4 53 13 55.5 0
18:32 1019 30.09 849 25.07 23 73.4 52 12.9 55.2 0
18:33 1019 30.09 849 25.07 23 73.4 53 13.2 55.7 0
18:34 1019 30.09 849 25.07 23 73.4 53 13.1 55.6 0
18:35 1019 30.09 849 25.07 23 73.3 54 13.3 56 0
18:36 1019 30.09 849 25.07 22.9 73.2 54 13.3 55.9 0
18:37 1019 30.09 849 25.07 22.9 73.1 55 13.4 56.1 0
18:38 1019 30.09 849 25.07 22.8 73.1 55 13.4 56.1 0
18:39 1019 30.09 849 25.07 22.8 73 57 13.9 57.1 0
18:40 1019 30.09 849 25.07 22.7 72.8 56 13.5 56.4 0
18:41 1019 30.09 849 25.07 22.6 72.7 56 13.5 56.3 0
18:42 1019 30.09 849 25.07 22.6 72.7 57 13.8 56.9 0
18:43 1019 30.09 849 25.07 22.6 72.6 58 13.9 57 0
18:44 1019 30.09 849 25.07 22.6 72.6 58 14 57.3 0
18:45 1019 30.09 849 25.07 22.6 72.6 58 14 57.2 0
18:46 1019 30.09 849 25.07 22.5 72.5 59 14.1 57.4 0
18:47 1019 30.09 849 25.07 22.5 72.5 59 14.3 57.8 0
18:48 1019 30.09 849 25.07 22.5 72.4 59 14.2 57.6 0
18:49 1019 30.09 849 25.07 22.4 72.3 60 14.3 57.7 0
18:50 1019 30.09 849 25.07 22.4 72.3 61 14.6 58.2 0
18:51 1019 30.09 849 25.07 22.3 72.2 61 14.6 58.2 0
18:52 1019 30.09 849 25.07 22.3 72.1 61 14.6 58.3 0
18:53 1019 30.09 849 25.07 22.2 72 62 14.8 58.6 0
18:54 1019 30.09 849 25.07 22.2 71.9 63 15 59 0
18:55 1019 30.09 849 25.07 22.1 71.9 62 14.7 58.4 0
18:56 1019 30.09 849 25.07 22.1 71.8 63 14.9 58.8 0
18:57 1019 30.09 849 25.07 22.1 71.7 63 14.8 58.7 0
18:58 1019 30.09 849 25.07 22 71.6 65 15.2 59.3 0
18:59 1019 30.09 849 25.07 22 71.5 66 15.4 59.8 0
19:00 1019 30.09 849 25.07 21.9 71.4 67 15.6 60.1 0
19:01 1020 30.12 849 25.07 21.8 71.2 67 15.4 59.7 0
19:02 1020 30.12 849 25.07 21.7 71.1 68 15.5 60 0
19:03 1020 30.12 849 25.07 21.6 70.9 69 15.8 60.4 0
19:04 1020 30.12 849 25.07 21.5 70.7 69 15.7 60.2 0
19:05 1020 30.12 849 25.07 21.4 70.5 70 15.7 60.3 0
19:06 1020 30.12 849 25.07 21.3 70.4 70 15.7 60.3 0
19:07 1020 30.12 849 25.07 21.3 70.3 70 15.7 60.3 0
19:08 1020 30.12 849 25.07 21.2 70.2 72 16 60.9 0
19:09 1020 30.12 849 25.07 21.2 70.1 72 16.1 60.9 0
19:10 1020 30.12 849 25.07 21.1 69.9 74 16.3 61.3 0
19:11 1020 30.12 849 25.07 21 69.7 75 16.4 61.6 0
19:12 1020 30.12 849 25.07 20.8 69.5 75 16.4 61.5 0
19:13 1020 30.12 849 25.07 20.8 69.4 76 16.4 61.6 0
19:14 1020 30.12 849 25.07 20.7 69.2 76 16.4 61.4 0
19:15 1019 30.09 849 25.07 20.7 69.2 75 16.1 61 0
19:16 1019 30.09 849 25.07 20.7 69.2 76 16.3 61.4 0
19:17 1019 30.09 849 25.07 20.7 69.2 76 16.3 61.3 0
19:18 1019 30.09 849 25.07 20.7 69.2 77 16.5 61.6 0
19:19 1019 30.09 849 25.07 20.7 69.2 77 16.6 61.9 0
19:20 1019 30.09 849 25.07 20.6 69.1 79 16.8 62.3 0
19:21 1019 30.09 848 25.04 20.5 69 79 16.8 62.2 0
19:22 1019 30.09 848 25.04 20.5 68.9 80 16.9 62.4 0
19:23 1019 30.09 848 25.04 20.5 68.8 80 16.8 62.3 0
19:24 1019 30.09 848 25.04 20.4 68.7 75 15.8 60.5 0
19:25 1019 30.09 848 25.04 20.5 69 72 15.3 59.6 0
19:26 1019 30.09 848 25.04 20.6 69.2 71 15.2 59.4 0
19:27 1019 30.09 848 25.04 20.6 69.1 71 15.2 59.3 0
19:28 1019 30.09 849 25.07 20.5 68.9 72 15.4 59.8 0
19:29 1019 30.09 849 25.07 20.4 68.6 73 15.5 59.9 0
19:30 1019 30.09 849 25.07 20.2 68.4 75 15.6 60.1 0
19:31 1019 30.09 849 25.07 20 68 73 15 59 0
19:32 1019 30.09 849 25.07 20 68 72 14.9 58.9 0
19:33 1019 30.09 849 25.07 19.9 67.9 74 15.1 59.2 0
19:34 1019 30.09 849 25.07 19.8 67.7 73 15 59 0
19:35 1019 30.09 849 25.07 19.8 67.6 73 14.8 58.7 0
19:36 1019 30.09 849 25.07 19.7 67.4 75 15.2 59.4 0
19:37 1019 30.09 849 25.07 19.6 67.2 76 15.2 59.4 0
19:38 1019 30.09 849 25.07 19.4 67 77 15.3 59.5 0
19:39 1019 30.09 849 25.07 19.3 66.8 77 15.3 59.5 0
19:40 1019 30.09 849 25.07 19.3 66.7 78 15.3 59.6 0
19:41 1019 30.09 849 25.07 19.2 66.5 79 15.4 59.8 0
19:42 1019 30.09 849 25.07 19.1 66.3 78 15.3 59.5 0
19:43 1019 30.09 849 25.07 19.1 66.3 79 15.3 59.6 0
19:44 1019 30.09 849 25.07 19 66.2 80 15.5 59.8 0
19:45 1019 30.09 849 25.07 19 66.2 79 15.3 59.6 0
19:46 1019 30.09 849 25.07 19 66.2 79 15.4 59.7 0
19:47 1019 30.09 849 25.07 19 66.2 81 15.6 60.1 0
19:48 1019 30.09 849 25.07 19 66.1 81 15.6 60 0
19:49 1019 30.09 849 25.07 18.9 66.1 81 15.6 60 0
19:50 1020 30.12 849 25.07 18.9 66 82 15.8 60.4 0
19:51 1020 30.12 849 25.07 18.8 65.9 81 15.6 60.1 0
19:52 1020 30.12 849 25.07 18.8 65.9 82 15.7 60.2 0
19:53 1020 30.12 849 25.07 18.8 65.8 83 15.8 60.5 0
19:54 1020 30.12 849 25.07 18.7 65.7 84 15.9 60.7 0
19:55 1020 30.12 849 25.07 18.6 65.6 83 15.7 60.3 0
19:56 1020 30.12 849 25.07 18.6 65.6 83 15.7 60.2 0
19:57 1020 30.12 849 25.07 18.6 65.4 82 15.5 59.9 0
19:58 1020 30.12 849 25.07 18.6 65.5 82 15.6 60 0
19:59 1020 30.12 849 25.07 18.6 65.5 82 15.5 59.9 0
20:00 1020 30.12 849 25.07 18.6 65.4 82 15.5 59.8 0
20:01 1020 30.12 849 25.07 18.5 65.4 82 15.5 59.8 0
20:02 1020 30.12 849 25.07 18.5 65.4 81 15.3 59.6 0
20:03 1020 30.12 849 25.07 18.5 65.4 82 15.4 59.8 0
20:04 1020 30.12 849 25.07 18.5 65.3 82 15.5 59.8 0
20:05 1020 30.12 849 25.07 18.5 65.3 82 15.3 59.6 0
20:06 1020 30.12 849 25.07 18.5 65.3 81 15.3 59.5 0
20:07 1020 30.12 849 25.07 18.6 65.4 82 15.4 59.7 0
20:08 1020 30.12 849 25.07 18.5 65.3 81 15.2 59.3 0
20:09 1020 30.12 849 25.07 18.6 65.5 80 15.1 59.2 0
20:10 1020 30.12 849 25.07 18.7 65.6 80 15.2 59.3 0
20:11 1020 30.12 849 25.07 18.7 65.7 80 15.2 59.4 0
20:12 1020 30.12 849 25.07 18.8 65.9 80 15.3 59.5 0
20:13 1020 30.12 849 25.07 18.9 65.9 80 15.3 59.5 0
20:14 1020 30.12 849 25.07 18.9 66 79 15.3 59.5 0
20:15 1020 30.12 849 25.07 19 66.1 78 15.2 59.3 0
20:16 1020 30.12 849 25.07 19 66.1 79 15.3 59.6 0
20:17 1020 30.12 849 25.07 19 66.2 78 15.1 59.2 0
20:18 1020 30.12 849 25.07 19.1 66.3 77 15 59.1 0
20:19 1020 30.12 849 25.07 19.1 66.4 77 15.1 59.2 0
20:20 1020 30.12 849 25.07 19.1 66.3 77 15.1 59.2 0
20:21 1020 30.12 849 25.07 19.1 66.3 76 14.8 58.7 0
20:22 1020 30.12 849 25.07 19.1 66.3 77 15 59 0
20:23 1020 30.12 849 25.07 19.1 66.3 77 14.9 58.9 0
20:24 1020 30.12 849 25.07 19 66.3 77 15 58.9 0
20:25 1020 30.12 849 25.07 19 66.3 77 14.9 58.9 0
20:26 1020 30.12 849 25.07 19 66.3 76 14.8 58.6 0
20:27 1020 30.12 849 25.07 19 66.3 77 14.9 58.9 0
20:28 1020 30.12 849 25.07 19 66.3 78 15.1 59.2 0
20:29 1020 30.12 849 25.07 19 66.2 78 15.2 59.3 0
20:30 1020 30.12 849 25.07 18.9 66.1 77 14.9 58.9 0
20:31 1020 30.12 849 25.07 19 66.2 78 15.1 59.2 0
20:32 1020 30.12 849 25.07 19 66.2 78 15.2 59.3 0
20:33 1020 30.12 849 25.07 18.9 66.1 79 15.2 59.4 0
20:34 1020 30.12 849 25.07 18.8 65.9 79 15.1 59.2 0
20:35 1020 30.12 849 25.07 18.8 65.9 78 14.9 58.8 0
20:36 1020 30.12 849 25.07 18.8 65.9 78 15 59.1 0
20:37 1020 30.12 849 25.07 18.9 65.9 79 15.1 59.2 0
20:38 1020 30.12 849 25.07 18.9 65.9 80 15.3 59.6 0
20:39 1020 30.12 849 25.07 18.7 65.7 80 15.3 59.5 0
20:40 1020 30.12 849 25.07 18.7 65.6 81 15.3 59.6 0
20:41 1020 30.12 849 25.07 18.6 65.6 80 15.2 59.3 0
20:42 1020 30.12 849 25.07 18.7 65.6 81 15.4 59.7 0
20:43 1020 30.12 849 25.07 18.6 65.5 80 15.2 59.3 0
20:44 1020 30.12 849 25.07 18.6 65.5 80 15.2 59.4 0
20:45 1020 30.12 849 25.07 18.7 65.6 80 15.1 59.2 0
20:46 1020 30.12 849 25.07 18.7 65.7 80 15.2 59.4 0
20:47 1020 30.12 849 25.07 18.7 65.7 79 15.1 59.2 0
20:48 1020 30.12 849 25.07 18.7 65.6 79 15.1 59.1 0
20:49 1020 30.12 849 25.07 18.7 65.7 79 15.1 59.2 0
20:50 1020 30.12 849 25.07 18.7 65.7 80 15.3 59.5 0
20:51 1020 30.12 849 25.07 18.7 65.6 81 15.4 59.8 0
20:52 1020 30.12 849 25.07 18.6 65.4 82 15.5 59.9 0
20:53 1020 30.12 849 25.07 18.5 65.3 81 15.3 59.5 0
20:54 1020 30.12 849 25.07 18.5 65.3 82 15.4 59.6 0
20:55 1020 30.12 849 25.07 18.4 65.2 81 15.2 59.3 0
20:56 1020 30.12 849 25.07 18.4 65.2 82 15.3 59.5 0
20:57 1020 30.12 849 25.07 18.4 65.1 82 15.3 59.5 0
20:58 1020 30.12 849 25.07 18.4 65.1 82 15.3 59.5 0
20:59 1020 30.12 849 25.07 18.4 65 80 15 59 0
21:00 1020 30.12 849 25.07 18.4 65 81 15.1 59.2 0
21:01 1020 30.12 849 25.07 18.4 65.1 81 15.2 59.3 0
21:02 1020 30.12 849 25.07 18.4 65 81 15.1 59.2 0
21:03 1020 30.12 849 25.07 18.4 65 81 15.1 59.3 0
21:04 1020 30.12 849 25.07 18.3 65 81 15 59.1 0
21:05 1020 30.12 849 25.07 18.3 65 81 15 59 0
21:06 1020 30.12 849 25.07 18.3 64.9 81 15.1 59.1 0
21:07 1020 30.12 849 25.07 18.3 65 81 15 59 0
21:08 1020 30.12 849 25.07 18.3 65 80 14.9 58.8 0
21:09 1020 30.12 849 25.07 18.3 65 81 15 58.9 0
21:10 1020 30.12 849 25.07 18.3 64.9 81 15.1 59.1 0
21:11 1019 30.09 849 25.07 18.2 64.7 81 15 59 0
21:12 1019 30.09 849 25.07 18.1 64.7 82 15 59 0
21:13 1019 30.09 849 25.07 18.1 64.5 82 14.9 58.9 0
21:14 1019 30.09 849 25.07 18 64.5 82 15 59.1 0
21:15 1019 30.09 849 25.07 18 64.3 83 15.1 59.2 0
21:16 1019 30.09 849 25.07 17.9 64.2 83 15.1 59.1 0
21:17 1019 30.09 849 25.07 17.9 64.2 82 14.9 58.8 0
21:18 1019 30.09 849 25.07 17.9 64.2 83 15 59 0
21:19 1019 30.09 848 25.04 17.9 64.2 82 14.8 58.6 0
21:20 1019 30.09 848 25.04 17.9 64.3 80 14.4 57.9 0
21:21 1019 30.09 848 25.04 18.1 64.6 79 14.5 58.2 0
21:22 1019 30.09 848 25.04 18.2 64.8 80 14.8 58.6 0
21:23 1019 30.09 849 25.07 18.2 64.7 80 14.8 58.7 0
21:24 1019 30.09 849 25.07 18.1 64.7 81 14.8 58.7 0
21:25 1019 30.09 849 25.07 18.1 64.6 82 14.9 58.9 0
21:26 1019 30.09 849 25.07 18.1 64.5 81 14.8 58.7 0
21:27 1019 30.09 849 25.07 18 64.4 81 14.8 58.7 0
21:28 1019 30.09 849 25.07 18 64.3 82 14.9 58.7 0
21:29 1019 30.09 849 25.07 17.9 64.2 83 15 59 0
21:30 1019 30.09 849 25.07 17.9 64.1 84 15.1 59.2 0
21:31 1019 30.09 849 25.07 17.8 64 84 15 59 0
21:32 1019 30.09 849 25.07 17.7 63.9 84 15 58.9 0
21:33 1019 30.09 849 25.07 17.7 63.9 83 14.9 58.8 0
21:34 1019 30.09 849 25.07 17.7 63.9 83 14.9 58.8 0
21:35 1019 30.09 849 25.07 17.8 64 83 15 58.9 0
21:36 1019 30.09 849 25.07 17.8 64 83 14.9 58.8 0
21:37 1019 30.09 849 25.07 17.7 63.9 84 15 58.9 0
21:38 1019 30.09 849 25.07 17.7 63.9 84 15 58.9 0
21:39 1019 30.09 849 25.07 17.6 63.8 84 14.9 58.9 0
21:40 1019 30.09 849 25.07 17.7 63.8 84 15 58.9 0
21:41 1019 30.09 849 25.07 17.6 63.7 84 15 59 0
21:42 1019 30.09 849 25.07 17.6 63.8 84 14.9 58.9 0
21:43 1019 30.09 849 25.07 17.7 63.8 84 15 58.9 0
21:44 1019 30.09 849 25.07 17.7 63.9 84 15 58.9 0
21:45 1019 30.09 849 25.07 17.7 63.9 84 15 58.9 0
21:46 1019 30.09 849 25.07 17.7 63.8 84 15 59 0
21:47 1019 30.09 849 25.07 17.7 63.8 84 14.9 58.9 0
21:48 1019 30.09 849 25.07 17.7 63.8 84 15 59 0
21:49 1019 30.09 849 25.07 17.6 63.8 84 15 59 0
21:50 1019 30.09 849 25.07 17.6 63.7 85 15 59 0
21:51 1019 30.09 849 25.07 17.6 63.6 85 15 59 0
21:52 1019 30.09 849 25.07 17.6 63.6 84 14.9 58.8 0
21:53 1019 30.09 849 25.07 17.6 63.6 83 14.6 58.4 0
21:54 1019 30.09 849 25.07 17.7 63.9 83 14.8 58.7 0
21:55 1019 30.09 849 25.07 17.8 64 82 14.7 58.5 0
21:56 1019 30.09 849 25.07 17.8 64.1 83 14.8 58.7 0
21:57 1019 30.09 849 25.07 17.8 64.1 82 14.8 58.6 0
21:58 1019 30.09 849 25.07 17.8 64.1 82 14.8 58.7 0
21:59 1019 30.09 849 25.07 17.9 64.1 82 14.7 58.5 0
22:00 1019 30.09 849 25.07 17.9 64.2 82 14.8 58.7 0
22:01 1019 30.09 849 25.07 17.9 64.2 81 14.7 58.4 0
22:02 1019 30.09 849 25.07 17.9 64.2 82 14.8 58.6 0
22:03 1019 30.09 849 25.07 18 64.3 81 14.7 58.5 0
22:04 1019 30.09 849 25.07 17.9 64.3 80 14.6 58.2 0
22:05 1019 30.09 848 25.04 18 64.3 80 14.4 58 0
22:06 1019 30.09 848 25.04 18.1 64.5 80 14.6 58.3 0
22:07 1019 30.09 848 25.04 18 64.4 81 14.8 58.7 0
22:08 1019 30.09 848 25.04 17.9 64.3 82 14.8 58.7 0
22:09 1019 30.09 848 25.04 17.8 64.1 82 14.8 58.6 0
22:10 1019 30.09 848 25.04 17.8 64 82 14.7 58.5 0
22:11 1019 30.09 848 25.04 17.8 64 82 14.7 58.4 0
22:12 1019 30.09 848 25.04 17.7 63.9 82 14.7 58.4 0
22:13 1019 30.09 848 25.04 17.7 63.9 82 14.7 58.5 0
22:14 1019 30.09 848 25.04 17.7 63.9 82 14.7 58.4 0
22:15 1019 30.09 848 25.04 17.7 63.8 83 14.7 58.5 0
22:16 1019 30.09 848 25.04 17.7 63.8 82 14.7 58.4 0
22:17 1019 30.09 848 25.04 17.7 63.8 82 14.6 58.3 0
22:18 1019 30.09 848 25.04 17.7 63.8 82 14.7 58.4 0
22:19 1019 30.09 848 25.04 17.7 63.8 83 14.7 58.4 0
22:20 1019 30.09 848 25.04 17.6 63.7 83 14.7 58.5 0
22:21 1019 30.09 848 25.04 17.6 63.6 83 14.7 58.4 0
22:22 1019 30.09 848 25.04 17.6 63.8 81 14.4 57.9 0
22:23 1019 30.09 848 25.04 17.7 63.9 81 14.4 58 0
22:24 1019 30.09 848 25.04 17.7 63.9 81 14.6 58.2 0
22:25 1019 30.09 848 25.04 17.7 63.9 82 14.6 58.4 0
22:26 1019 30.09 848 25.04 17.6 63.8 82 14.6 58.2 0
22:27 1019 30.09 848 25.04 17.6 63.7 82 14.6 58.3 0
22:28 1019 30.09 848 25.04 17.5 63.6 83 14.6 58.2 0
22:29 1019 30.09 848 25.04 17.5 63.5 83 14.6 58.3 0
22:30 1019 30.09 848 25.04 17.4 63.4 83 14.6 58.3 0
22:31 1019 30.09 848 25.04 17.4 63.2 84 14.6 58.3 0
22:32 1019 30.09 848 25.04 17.3 63.1 84 14.6 58.3 0
22:33 1019 30.09 848 25.04 17.3 63.1 84 14.6 58.3 0
22:34 1019 30.09 848 25.04 17.2 63 84 14.5 58.1 0
22:35 1019 30.09 848 25.04 17.3 63.1 84 14.5 58.2 0
22:36 1019 30.09 848 25.04 17.2 63 84 14.5 58.1 0
22:37 1019 30.09 848 25.04 17.3 63.1 84 14.6 58.2 0
22:38 1019 30.09 848 25.04 17.3 63.1 84 14.5 58.1 0
22:39 1019 30.09 848 25.04 17.3 63.2 84 14.6 58.2 0
22:40 1019 30.09 848 25.04 17.3 63.2 83 14.5 58.2 0
22:41 1019 30.09 848 25.04 17.3 63.2 83 14.5 58.1 0
22:42 1019 30.09 848 25.04 17.4 63.2 83 14.5 58.1 0
22:43 1019 30.09 848 25.04 17.4 63.3 83 14.5 58.1 0
22:44 1019 30.09 848 25.04 17.4 63.3 83 14.5 58.1 0
22:45 1019 30.09 848 25.04 17.4 63.4 83 14.6 58.2 0
22:46 1019 30.09 848 25.04 17.4 63.3 83 14.5 58.2 0
22:47 1019 30.09 848 25.04 17.4 63.4 83 14.6 58.3 0
22:48 1019 30.09 848 25.04 17.5 63.4 83 14.5 58.2 0
22:49 1019 30.09 848 25.04 17.5 63.5 83 14.6 58.2 0
22:50 1019 30.09 848 25.04 17.6 63.7 82 14.6 58.2 0
22:51 1019 30.09 848 25.04 17.7 63.8 82 14.6 58.2 0
22:52 1019 30.09 849 25.07 17.7 63.9 81 14.5 58.2 0
22:53 1019 30.09 849 25.07 17.8 64.1 80 14.4 57.9 0
22:54 1019 30.09 849 25.07 17.9 64.1 81 14.6 58.2 0
22:55 1019 30.09 849 25.07 17.9 64.1 81 14.7 58.4 0
22:56 1019 30.09 849 25.07 17.8 64.1 81 14.6 58.3 0
22:57 1019 30.09 849 25.07 17.8 64.1 81 14.7 58.4 0
22:58 1019 30.09 849 25.07 17.8 64.1 81 14.6 58.3 0
22:59 1019 30.09 849 25.07 17.9 64.2 82 14.7 58.5 0
23:00 1019 30.09 849 25.07 17.8 64.1 81 14.6 58.4 0
23:01 1019 30.09 849 25.07 17.8 64.1 82 14.7 58.5 0
23:02 1019 30.09 849 25.07 17.8 64.1 82 14.7 58.4 0
23:03 1019 30.09 849 25.07 17.8 64 81 14.6 58.3 0
23:04 1020 30.12 849 25.07 17.8 64.1 82 14.6 58.4 0
23:05 1020 30.12 849 25.07 17.8 64.1 81 14.5 58.1 0
23:06 1020 30.12 849 25.07 17.9 64.2 81 14.5 58.1 0
23:07 1020 30.12 849 25.07 18 64.3 81 14.6 58.3 0
23:08 1020 30.12 849 25.07 18 64.4 81 14.6 58.4 0
23:09 1020 30.12 849 25.07 18 64.3 81 14.6 58.4 0
23:10 1020 30.12 849 25.07 17.9 64.3 81 14.6 58.3 0
23:11 1020 30.12 849 25.07 17.9 64.3 81 14.7 58.4 0
23:12 1020 30.12 849 25.07 17.9 64.2 81 14.6 58.3 0
23:13 1020 30.12 849 25.07 17.9 64.2 81 14.7 58.4 0
23:14 1020 30.12 849 25.07 17.9 64.2 81 14.7 58.4 0
23:15 1020 30.12 849 25.07 17.8 64.1 81 14.6 58.3 0
23:16 1020 30.12 849 25.07 17.8 64.1 81 14.6 58.2 0
23:17 1020 30.12 849 25.07 17.9 64.1 81 14.7 58.4 0
23:18 1020 30.12 849 25.07 17.8 64.1 82 14.7 58.5 0
23:19 1020 30.12 849 25.07 17.8 64 82 14.7 58.4 0
23:20 1020 30.12 849 25.07 17.8 64 82 14.7 58.4 0
23:21 1020 30.12 849 25.07 17.7 63.9 82 14.6 58.2 0
23:22 1020 30.12 849 25.07 17.7 63.8 82 14.6 58.3 0
23:23 1020 30.12 849 25.07 17.7 63.9 83 14.9 58.8 0
23:24 1020 30.12 849 25.07 17.6 63.6 83 14.7 58.5 0
23:25 1020 30.12 849 25.07 17.5 63.5 83 14.6 58.4 0
23:26 1020 30.12 849 25.07 17.5 63.5 83 14.6 58.3 0
23:27 1020 30.12 849 25.07 17.5 63.5 83 14.6 58.3 0
23:28 1020 30.12 849 25.07 17.5 63.6 81 14.3 57.7 0
23:29 1020 30.12 849 25.07 17.7 63.8 82 14.6 58.3 0
23:30 1020 30.12 849 25.07 17.7 63.8 84 15 59 0
23:31 1020 30.12 849 25.07 17.6 63.6 85 15 59 0
23:32 1020 30.12 849 25.07 17.5 63.5 85 14.9 58.8 0
23:33 1020 30.12 849 25.07 17.4 63.3 85 14.8 58.6 0
23:34 1020 30.12 849 25.07 17.4 63.3 83 14.6 58.2 0
23:35 1020 30.12 849 25.07 17.4 63.4 83 14.6 58.2 0
23:36 1020 30.12 849 25.07 17.5 63.5 82 14.5 58.1 0
23:37 1020 30.12 849 25.07 17.5 63.5 83 14.7 58.4 0
23:38 1020 30.12 849 25.07 17.4 63.4 84 14.7 58.4 0
23:39 1020 30.12 849 25.07 17.3 63.1 85 14.7 58.5 0
23:40 1020 30.12 849 25.07 17 62.7 86 14.7 58.5 0
23:41 1020 30.12 849 25.07 16.9 62.4 87 14.8 58.6 0
23:42 1020 30.12 849 25.07 16.9 62.4 88 14.8 58.7 0
23:43 1020 30.12 849 25.07 16.8 62.3 88 14.8 58.7 0
23:44 1020 30.12 849 25.07 16.8 62.2 88 14.8 58.7 0
23:45 1020 30.12 849 25.07 16.8 62.2 88 14.8 58.7 0
23:46 1020 30.12 849 25.07 16.8 62.2 88 14.8 58.6 0
23:47 1020 30.12 849 25.07 16.8 62.3 88 14.8 58.6 0
23:48 1020 30.12 849 25.07 16.9 62.4 88 14.8 58.7 0
23:49 1020 30.12 849 25.07 16.9 62.4 88 14.8 58.7 0
23:50 1020 30.12 849 25.07 16.8 62.3 88 14.8 58.7 0
23:51 1020 30.12 849 25.07 16.8 62.3 88 14.9 58.8 0
23:52 1020 30.12 849 25.07 16.7 62.1 88 14.8 58.7 0
23:53 1020 30.12 849 25.07 16.8 62.2 88 14.8 58.7 0
23:54 1020 30.12 849 25.07 16.7 62.1 88 14.8 58.6 0
23:55 1020 30.12 849 25.07 16.7 62.1 88 14.7 58.4 0
23:56 1020 30.12 849 25.07 16.8 62.2 87 14.6 58.3 0
23:57 1020 30.12 849 25.07 17 62.5 86 14.7 58.5 0
23:58 1020 30.12 849 25.07 17 62.6 87 14.8 58.7 0
23:59 1020 30.12 849 25.07 16.9 62.5 87 14.8 58.7 0
24:00 1020 30.12 849 25.07 16.9 62.4 88 14.8 58.7 0